<?xml version="1.0" encoding="utf-8" standalone="no" ?>
<gpx xmlns="http://www.topografix.com/GPX/1/1" creator="Tracker" version="1.1" xmlns:xsi="http://www.w3.org/2001/XMLSchema-instance" xsi:schemaLocation="http://www.topografix.com/GPX/1/1 http://www.topografix.com/GPX/1/1/gpx.xsd">
  <metadata>
    <time>2010-02-14T14:52:09Z</time>
  </metadata>
  <trk>
    <trkseg>
      <trkpt lat="49.957680" lon="8.035100">
        <time>2010-02-14T11:46:45Z</time>
      </trkpt>
      <trkpt lat="49.957660" lon="8.035100">
        <time>2010-02-14T11:46:08Z</time>
      </trkpt>
      <trkpt lat="49.957660" lon="8.035100">
        <time>2010-02-14T11:46:12Z</time>
      </trkpt>
      <trkpt lat="49.957750" lon="8.035030">
        <time>2010-02-14T11:46:16Z</time>
      </trkpt>
      <trkpt lat="49.957750" lon="8.035030">
        <time>2010-02-14T11:46:24Z</time>
      </trkpt>
      <trkpt lat="49.957750" lon="8.035030">
        <time>2010-02-14T11:46:28Z</time>
      </trkpt>
      <trkpt lat="49.957740" lon="8.035100">
        <time>2010-02-14T11:46:32Z</time>
      </trkpt>
      <trkpt lat="49.957740" lon="8.035100">
        <time>2010-02-14T11:46:38Z</time>
      </trkpt>
      <trkpt lat="49.957740" lon="8.035100">
        <time>2010-02-14T11:46:42Z</time>
      </trkpt>
      <trkpt lat="49.957740" lon="8.035100">
        <time>2010-02-14T11:48:04Z</time>
      </trkpt>
      <trkpt lat="49.957780" lon="8.035140">
        <time>2010-02-14T11:48:08Z</time>
      </trkpt>
      <trkpt lat="49.957800" lon="8.035160">
        <time>2010-02-14T11:48:10Z</time>
      </trkpt>
      <trkpt lat="49.957800" lon="8.035160">
        <time>2010-02-14T11:48:16Z</time>
      </trkpt>
      <trkpt lat="49.957910" lon="8.035160">
        <time>2010-02-14T11:48:20Z</time>
      </trkpt>
      <trkpt lat="49.957920" lon="8.035160">
        <time>2010-02-14T11:48:22Z</time>
      </trkpt>
      <trkpt lat="49.957920" lon="8.035160">
        <time>2010-02-14T11:48:30Z</time>
      </trkpt>
      <trkpt lat="49.957930" lon="8.035010">
        <time>2010-02-14T11:48:36Z</time>
      </trkpt>
      <trkpt lat="49.957900" lon="8.034690">
        <time>2010-02-14T11:48:48Z</time>
      </trkpt>
      <trkpt lat="49.957890" lon="8.034580">
        <time>2010-02-14T11:48:56Z</time>
      </trkpt>
      <trkpt lat="49.957850" lon="8.034390">
        <time>2010-02-14T11:49:00Z</time>
      </trkpt>
      <trkpt lat="49.957780" lon="8.034110">
        <time>2010-02-14T11:49:10Z</time>
      </trkpt>
      <trkpt lat="49.957730" lon="8.033940">
        <time>2010-02-14T11:49:20Z</time>
      </trkpt>
      <trkpt lat="49.957730" lon="8.033920">
        <time>2010-02-14T11:49:24Z</time>
      </trkpt>
      <trkpt lat="49.957730" lon="8.033850">
        <time>2010-02-14T11:49:30Z</time>
      </trkpt>
      <trkpt lat="49.957720" lon="8.033790">
        <time>2010-02-14T11:49:32Z</time>
      </trkpt>
      <trkpt lat="49.957680" lon="8.033640">
        <time>2010-02-14T11:49:38Z</time>
      </trkpt>
      <trkpt lat="49.957630" lon="8.033340">
        <time>2010-02-14T11:49:52Z</time>
      </trkpt>
      <trkpt lat="49.957610" lon="8.033230">
        <time>2010-02-14T11:50:02Z</time>
      </trkpt>
      <trkpt lat="49.957610" lon="8.033230">
        <time>2010-02-14T11:50:06Z</time>
      </trkpt>
      <trkpt lat="49.957610" lon="8.033230">
        <time>2010-02-14T11:50:10Z</time>
      </trkpt>
      <trkpt lat="49.957440" lon="8.033130">
        <time>2010-02-14T11:50:16Z</time>
      </trkpt>
      <trkpt lat="49.957380" lon="8.033150">
        <time>2010-02-14T11:50:20Z</time>
      </trkpt>
      <trkpt lat="49.957240" lon="8.033210">
        <time>2010-02-14T11:50:30Z</time>
      </trkpt>
      <trkpt lat="49.957040" lon="8.033250">
        <time>2010-02-14T11:50:44Z</time>
      </trkpt>
      <trkpt lat="49.956930" lon="8.033250">
        <time>2010-02-14T11:50:56Z</time>
      </trkpt>
      <trkpt lat="49.956930" lon="8.033250">
        <time>2010-02-14T11:51:00Z</time>
      </trkpt>
      <trkpt lat="49.956930" lon="8.033250">
        <time>2010-02-14T11:51:04Z</time>
      </trkpt>
      <trkpt lat="49.956840" lon="8.033210">
        <time>2010-02-14T11:51:08Z</time>
      </trkpt>
      <trkpt lat="49.956700" lon="8.033210">
        <time>2010-02-14T11:51:20Z</time>
      </trkpt>
      <trkpt lat="49.956610" lon="8.033250">
        <time>2010-02-14T11:51:26Z</time>
      </trkpt>
      <trkpt lat="49.956310" lon="8.033470">
        <time>2010-02-14T11:51:48Z</time>
      </trkpt>
      <trkpt lat="49.956260" lon="8.033490">
        <time>2010-02-14T11:51:56Z</time>
      </trkpt>
      <trkpt lat="49.956260" lon="8.033490">
        <time>2010-02-14T11:52:00Z</time>
      </trkpt>
      <trkpt lat="49.956260" lon="8.033490">
        <time>2010-02-14T11:52:04Z</time>
      </trkpt>
      <trkpt lat="49.956260" lon="8.033490">
        <time>2010-02-14T11:52:08Z</time>
      </trkpt>
      <trkpt lat="49.956040" lon="8.033660">
        <time>2010-02-14T11:52:12Z</time>
      </trkpt>
      <trkpt lat="49.955940" lon="8.033660">
        <time>2010-02-14T11:52:22Z</time>
      </trkpt>
      <trkpt lat="49.955860" lon="8.033700">
        <time>2010-02-14T11:52:28Z</time>
      </trkpt>
      <trkpt lat="49.955790" lon="8.033700">
        <time>2010-02-14T11:52:32Z</time>
      </trkpt>
      <trkpt lat="49.955590" lon="8.033700">
        <time>2010-02-14T11:52:48Z</time>
      </trkpt>
      <trkpt lat="49.955520" lon="8.033750">
        <time>2010-02-14T11:52:56Z</time>
      </trkpt>
      <trkpt lat="49.955410" lon="8.033770">
        <time>2010-02-14T11:53:06Z</time>
      </trkpt>
      <trkpt lat="49.955350" lon="8.033790">
        <time>2010-02-14T11:53:16Z</time>
      </trkpt>
      <trkpt lat="49.955260" lon="8.033810">
        <time>2010-02-14T11:53:20Z</time>
      </trkpt>
      <trkpt lat="49.955180" lon="8.033850">
        <time>2010-02-14T11:53:28Z</time>
      </trkpt>
      <trkpt lat="49.955030" lon="8.033960">
        <time>2010-02-14T11:53:38Z</time>
      </trkpt>
      <trkpt lat="49.954940" lon="8.034000">
        <time>2010-02-14T11:53:48Z</time>
      </trkpt>
      <trkpt lat="49.954860" lon="8.034000">
        <time>2010-02-14T11:53:56Z</time>
      </trkpt>
      <trkpt lat="49.954760" lon="8.034050">
        <time>2010-02-14T11:54:04Z</time>
      </trkpt>
      <trkpt lat="49.954640" lon="8.034070">
        <time>2010-02-14T11:54:14Z</time>
      </trkpt>
      <trkpt lat="49.954560" lon="8.034110">
        <time>2010-02-14T11:54:20Z</time>
      </trkpt>
      <trkpt lat="49.954370" lon="8.034260">
        <time>2010-02-14T11:54:36Z</time>
      </trkpt>
      <trkpt lat="49.954300" lon="8.034330">
        <time>2010-02-14T11:54:46Z</time>
      </trkpt>
      <trkpt lat="49.954300" lon="8.034330">
        <time>2010-02-14T11:54:50Z</time>
      </trkpt>
      <trkpt lat="49.954300" lon="8.034330">
        <time>2010-02-14T11:54:56Z</time>
      </trkpt>
      <trkpt lat="49.954300" lon="8.034330">
        <time>2010-02-14T11:55:24Z</time>
      </trkpt>
      <trkpt lat="49.954240" lon="8.034130">
        <time>2010-02-14T11:55:28Z</time>
      </trkpt>
      <trkpt lat="49.954240" lon="8.034130">
        <time>2010-02-14T11:55:36Z</time>
      </trkpt>
      <trkpt lat="49.954170" lon="8.034000">
        <time>2010-02-14T11:55:40Z</time>
      </trkpt>
      <trkpt lat="49.954120" lon="8.033880">
        <time>2010-02-14T11:55:48Z</time>
      </trkpt>
      <trkpt lat="49.953910" lon="8.033430">
        <time>2010-02-14T11:56:22Z</time>
      </trkpt>
      <trkpt lat="49.953840" lon="8.033320">
        <time>2010-02-14T11:56:26Z</time>
      </trkpt>
      <trkpt lat="49.953790" lon="8.033130">
        <time>2010-02-14T11:56:34Z</time>
      </trkpt>
      <trkpt lat="49.953750" lon="8.032970">
        <time>2010-02-14T11:56:44Z</time>
      </trkpt>
      <trkpt lat="49.953660" lon="8.032720">
        <time>2010-02-14T11:56:58Z</time>
      </trkpt>
      <trkpt lat="49.953530" lon="8.032480">
        <time>2010-02-14T11:57:14Z</time>
      </trkpt>
      <trkpt lat="49.953530" lon="8.032480">
        <time>2010-02-14T11:57:18Z</time>
      </trkpt>
      <trkpt lat="49.953530" lon="8.032480">
        <time>2010-02-14T11:57:22Z</time>
      </trkpt>
      <trkpt lat="49.953530" lon="8.032480">
        <time>2010-02-14T11:57:38Z</time>
      </trkpt>
      <trkpt lat="49.953260" lon="8.032330">
        <time>2010-02-14T11:57:44Z</time>
      </trkpt>
      <trkpt lat="49.953260" lon="8.032330">
        <time>2010-02-14T11:57:50Z</time>
      </trkpt>
      <trkpt lat="49.953260" lon="8.032330">
        <time>2010-02-14T11:57:54Z</time>
      </trkpt>
      <trkpt lat="49.953260" lon="8.032330">
        <time>2010-02-14T11:58:02Z</time>
      </trkpt>
      <trkpt lat="49.952980" lon="8.032290">
        <time>2010-02-14T11:58:08Z</time>
      </trkpt>
      <trkpt lat="49.952980" lon="8.032290">
        <time>2010-02-14T11:58:16Z</time>
      </trkpt>
      <trkpt lat="49.952800" lon="8.032290">
        <time>2010-02-14T11:58:20Z</time>
      </trkpt>
      <trkpt lat="49.952800" lon="8.032290">
        <time>2010-02-14T11:58:28Z</time>
      </trkpt>
      <trkpt lat="49.952800" lon="8.032290">
        <time>2010-02-14T11:58:32Z</time>
      </trkpt>
      <trkpt lat="49.952800" lon="8.032290">
        <time>2010-02-14T11:58:36Z</time>
      </trkpt>
      <trkpt lat="49.952600" lon="8.032180">
        <time>2010-02-14T11:58:40Z</time>
      </trkpt>
      <trkpt lat="49.952600" lon="8.032180">
        <time>2010-02-14T11:58:48Z</time>
      </trkpt>
      <trkpt lat="49.952500" lon="8.032030">
        <time>2010-02-14T11:58:52Z</time>
      </trkpt>
      <trkpt lat="49.952500" lon="8.032030">
        <time>2010-02-14T11:59:00Z</time>
      </trkpt>
      <trkpt lat="49.952500" lon="8.032030">
        <time>2010-02-14T11:59:02Z</time>
      </trkpt>
      <trkpt lat="49.952450" lon="8.031840">
        <time>2010-02-14T11:59:06Z</time>
      </trkpt>
      <trkpt lat="49.952450" lon="8.031840">
        <time>2010-02-14T11:59:16Z</time>
      </trkpt>
      <trkpt lat="49.952450" lon="8.031840">
        <time>2010-02-14T11:59:20Z</time>
      </trkpt>
      <trkpt lat="49.952450" lon="8.031840">
        <time>2010-02-14T11:59:24Z</time>
      </trkpt>
      <trkpt lat="49.952320" lon="8.031450">
        <time>2010-02-14T11:59:32Z</time>
      </trkpt>
      <trkpt lat="49.952320" lon="8.031450">
        <time>2010-02-14T11:59:36Z</time>
      </trkpt>
      <trkpt lat="49.952200" lon="8.031260">
        <time>2010-02-14T11:59:40Z</time>
      </trkpt>
      <trkpt lat="49.952170" lon="8.031170">
        <time>2010-02-14T11:59:50Z</time>
      </trkpt>
      <trkpt lat="49.952100" lon="8.031000">
        <time>2010-02-14T11:59:54Z</time>
      </trkpt>
      <trkpt lat="49.952060" lon="8.030890">
        <time>2010-02-14T12:00:04Z</time>
      </trkpt>
      <trkpt lat="49.952020" lon="8.030760">
        <time>2010-02-14T12:00:08Z</time>
      </trkpt>
      <trkpt lat="49.951980" lon="8.030660">
        <time>2010-02-14T12:00:16Z</time>
      </trkpt>
      <trkpt lat="49.951950" lon="8.030640">
        <time>2010-02-14T12:00:22Z</time>
      </trkpt>
      <trkpt lat="49.951950" lon="8.030640">
        <time>2010-02-14T12:00:30Z</time>
      </trkpt>
      <trkpt lat="49.951950" lon="8.030640">
        <time>2010-02-14T12:00:34Z</time>
      </trkpt>
      <trkpt lat="49.951790" lon="8.030360">
        <time>2010-02-14T12:00:38Z</time>
      </trkpt>
      <trkpt lat="49.951740" lon="8.030210">
        <time>2010-02-14T12:00:46Z</time>
      </trkpt>
      <trkpt lat="49.951740" lon="8.030210">
        <time>2010-02-14T12:00:50Z</time>
      </trkpt>
      <trkpt lat="49.951740" lon="8.030210">
        <time>2010-02-14T12:00:54Z</time>
      </trkpt>
      <trkpt lat="49.951690" lon="8.030060">
        <time>2010-02-14T12:00:58Z</time>
      </trkpt>
      <trkpt lat="49.951690" lon="8.030060">
        <time>2010-02-14T12:01:06Z</time>
      </trkpt>
      <trkpt lat="49.951590" lon="8.029970">
        <time>2010-02-14T12:01:10Z</time>
      </trkpt>
      <trkpt lat="49.951590" lon="8.029970">
        <time>2010-02-14T12:01:18Z</time>
      </trkpt>
      <trkpt lat="49.951590" lon="8.029980">
        <time>2010-02-14T12:01:18Z</time>
      </trkpt>
      <trkpt lat="49.951370" lon="8.029860">
        <time>2010-02-14T12:01:34Z</time>
      </trkpt>
      <trkpt lat="49.951370" lon="8.029860">
        <time>2010-02-14T12:01:42Z</time>
      </trkpt>
      <trkpt lat="49.951270" lon="8.029710">
        <time>2010-02-14T12:01:48Z</time>
      </trkpt>
      <trkpt lat="49.951270" lon="8.029710">
        <time>2010-02-14T12:01:56Z</time>
      </trkpt>
      <trkpt lat="49.951270" lon="8.029710">
        <time>2010-02-14T12:02:00Z</time>
      </trkpt>
      <trkpt lat="49.951110" lon="8.029690">
        <time>2010-02-14T12:02:04Z</time>
      </trkpt>
      <trkpt lat="49.951110" lon="8.029690">
        <time>2010-02-14T12:02:12Z</time>
      </trkpt>
      <trkpt lat="49.950980" lon="8.029410">
        <time>2010-02-14T12:02:16Z</time>
      </trkpt>
      <trkpt lat="49.950930" lon="8.029280">
        <time>2010-02-14T12:02:24Z</time>
      </trkpt>
      <trkpt lat="49.950910" lon="8.029070">
        <time>2010-02-14T12:02:34Z</time>
      </trkpt>
      <trkpt lat="49.950930" lon="8.028790">
        <time>2010-02-14T12:02:48Z</time>
      </trkpt>
      <trkpt lat="49.950920" lon="8.028700">
        <time>2010-02-14T12:02:56Z</time>
      </trkpt>
      <trkpt lat="49.950920" lon="8.028700">
        <time>2010-02-14T12:03:00Z</time>
      </trkpt>
      <trkpt lat="49.950920" lon="8.028700">
        <time>2010-02-14T12:03:04Z</time>
      </trkpt>
      <trkpt lat="49.950920" lon="8.028700">
        <time>2010-02-14T12:03:08Z</time>
      </trkpt>
      <trkpt lat="49.950780" lon="8.028450">
        <time>2010-02-14T12:03:12Z</time>
      </trkpt>
      <trkpt lat="49.950780" lon="8.028450">
        <time>2010-02-14T12:03:20Z</time>
      </trkpt>
      <trkpt lat="49.950780" lon="8.028450">
        <time>2010-02-14T12:03:24Z</time>
      </trkpt>
      <trkpt lat="49.950780" lon="8.028450">
        <time>2010-02-14T12:03:28Z</time>
      </trkpt>
      <trkpt lat="49.950700" lon="8.028340">
        <time>2010-02-14T12:03:32Z</time>
      </trkpt>
      <trkpt lat="49.950700" lon="8.028340">
        <time>2010-02-14T12:03:40Z</time>
      </trkpt>
      <trkpt lat="49.950600" lon="8.028130">
        <time>2010-02-14T12:03:44Z</time>
      </trkpt>
      <trkpt lat="49.950590" lon="8.028020">
        <time>2010-02-14T12:03:52Z</time>
      </trkpt>
      <trkpt lat="49.950620" lon="8.027830">
        <time>2010-02-14T12:04:04Z</time>
      </trkpt>
      <trkpt lat="49.950630" lon="8.027700">
        <time>2010-02-14T12:04:16Z</time>
      </trkpt>
      <trkpt lat="49.950640" lon="8.027570">
        <time>2010-02-14T12:04:20Z</time>
      </trkpt>
      <trkpt lat="49.950640" lon="8.027570">
        <time>2010-02-14T12:04:30Z</time>
      </trkpt>
      <trkpt lat="49.950640" lon="8.027570">
        <time>2010-02-14T12:04:34Z</time>
      </trkpt>
      <trkpt lat="49.950440" lon="8.027460">
        <time>2010-02-14T12:04:38Z</time>
      </trkpt>
      <trkpt lat="49.950360" lon="8.027400">
        <time>2010-02-14T12:04:46Z</time>
      </trkpt>
      <trkpt lat="49.950360" lon="8.027400">
        <time>2010-02-14T12:04:50Z</time>
      </trkpt>
      <trkpt lat="49.950360" lon="8.027400">
        <time>2010-02-14T12:04:54Z</time>
      </trkpt>
      <trkpt lat="49.950280" lon="8.027270">
        <time>2010-02-14T12:04:58Z</time>
      </trkpt>
      <trkpt lat="49.950130" lon="8.026920">
        <time>2010-02-14T12:05:18Z</time>
      </trkpt>
      <trkpt lat="49.950110" lon="8.026880">
        <time>2010-02-14T12:05:24Z</time>
      </trkpt>
      <trkpt lat="49.950110" lon="8.026880">
        <time>2010-02-14T12:05:34Z</time>
      </trkpt>
      <trkpt lat="49.950110" lon="8.026880">
        <time>2010-02-14T12:05:38Z</time>
      </trkpt>
      <trkpt lat="49.950110" lon="8.026880">
        <time>2010-02-14T12:05:46Z</time>
      </trkpt>
      <trkpt lat="49.949880" lon="8.026800">
        <time>2010-02-14T12:05:50Z</time>
      </trkpt>
      <trkpt lat="49.949880" lon="8.026800">
        <time>2010-02-14T12:05:58Z</time>
      </trkpt>
      <trkpt lat="49.949730" lon="8.026800">
        <time>2010-02-14T12:06:02Z</time>
      </trkpt>
      <trkpt lat="49.949730" lon="8.026800">
        <time>2010-02-14T12:06:10Z</time>
      </trkpt>
      <trkpt lat="49.949650" lon="8.026820">
        <time>2010-02-14T12:06:14Z</time>
      </trkpt>
      <trkpt lat="49.949650" lon="8.026820">
        <time>2010-02-14T12:06:22Z</time>
      </trkpt>
      <trkpt lat="49.949650" lon="8.026820">
        <time>2010-02-14T12:06:26Z</time>
      </trkpt>
      <trkpt lat="49.949650" lon="8.026820">
        <time>2010-02-14T12:06:34Z</time>
      </trkpt>
      <trkpt lat="49.949360" lon="8.026880">
        <time>2010-02-14T12:06:40Z</time>
      </trkpt>
      <trkpt lat="49.949250" lon="8.026920">
        <time>2010-02-14T12:06:48Z</time>
      </trkpt>
      <trkpt lat="49.949250" lon="8.026920">
        <time>2010-02-14T12:06:52Z</time>
      </trkpt>
      <trkpt lat="49.949160" lon="8.026970">
        <time>2010-02-14T12:06:56Z</time>
      </trkpt>
      <trkpt lat="49.949160" lon="8.026970">
        <time>2010-02-14T12:07:04Z</time>
      </trkpt>
      <trkpt lat="49.949090" lon="8.027070">
        <time>2010-02-14T12:07:08Z</time>
      </trkpt>
      <trkpt lat="49.949090" lon="8.027070">
        <time>2010-02-14T12:07:16Z</time>
      </trkpt>
      <trkpt lat="49.949050" lon="8.027220">
        <time>2010-02-14T12:07:20Z</time>
      </trkpt>
      <trkpt lat="49.949020" lon="8.027310">
        <time>2010-02-14T12:07:28Z</time>
      </trkpt>
      <trkpt lat="49.949020" lon="8.027310">
        <time>2010-02-14T12:07:32Z</time>
      </trkpt>
      <trkpt lat="49.949020" lon="8.027310">
        <time>2010-02-14T12:07:34Z</time>
      </trkpt>
      <trkpt lat="49.949020" lon="8.027310">
        <time>2010-02-14T12:07:36Z</time>
      </trkpt>
      <trkpt lat="49.948980" lon="8.027460">
        <time>2010-02-14T12:07:40Z</time>
      </trkpt>
      <trkpt lat="49.948980" lon="8.027460">
        <time>2010-02-14T12:07:48Z</time>
      </trkpt>
      <trkpt lat="49.948980" lon="8.027460">
        <time>2010-02-14T12:07:50Z</time>
      </trkpt>
      <trkpt lat="49.948980" lon="8.027460">
        <time>2010-02-14T12:08:08Z</time>
      </trkpt>
      <trkpt lat="49.948710" lon="8.027850">
        <time>2010-02-14T12:08:14Z</time>
      </trkpt>
      <trkpt lat="49.948650" lon="8.028020">
        <time>2010-02-14T12:08:20Z</time>
      </trkpt>
      <trkpt lat="49.948650" lon="8.028020">
        <time>2010-02-14T12:08:26Z</time>
      </trkpt>
      <trkpt lat="49.948610" lon="8.028170">
        <time>2010-02-14T12:08:30Z</time>
      </trkpt>
      <trkpt lat="49.948610" lon="8.028170">
        <time>2010-02-14T12:08:38Z</time>
      </trkpt>
      <trkpt lat="49.948570" lon="8.028320">
        <time>2010-02-14T12:08:42Z</time>
      </trkpt>
      <trkpt lat="49.948520" lon="8.028470">
        <time>2010-02-14T12:08:50Z</time>
      </trkpt>
      <trkpt lat="49.948520" lon="8.028470">
        <time>2010-02-14T12:08:54Z</time>
      </trkpt>
      <trkpt lat="49.948470" lon="8.028700">
        <time>2010-02-14T12:09:00Z</time>
      </trkpt>
      <trkpt lat="49.948390" lon="8.028830">
        <time>2010-02-14T12:09:06Z</time>
      </trkpt>
      <trkpt lat="49.948320" lon="8.028900">
        <time>2010-02-14T12:09:16Z</time>
      </trkpt>
      <trkpt lat="49.948310" lon="8.028980">
        <time>2010-02-14T12:09:20Z</time>
      </trkpt>
      <trkpt lat="49.948310" lon="8.028980">
        <time>2010-02-14T12:09:26Z</time>
      </trkpt>
      <trkpt lat="49.948310" lon="8.028980">
        <time>2010-02-14T12:09:28Z</time>
      </trkpt>
      <trkpt lat="49.948310" lon="8.028980">
        <time>2010-02-14T12:09:30Z</time>
      </trkpt>
      <trkpt lat="49.948230" lon="8.029180">
        <time>2010-02-14T12:09:34Z</time>
      </trkpt>
      <trkpt lat="49.948080" lon="8.029430">
        <time>2010-02-14T12:09:48Z</time>
      </trkpt>
      <trkpt lat="49.948080" lon="8.029430">
        <time>2010-02-14T12:09:50Z</time>
      </trkpt>
      <trkpt lat="49.948080" lon="8.029430">
        <time>2010-02-14T12:09:52Z</time>
      </trkpt>
      <trkpt lat="49.948080" lon="8.029430">
        <time>2010-02-14T12:10:08Z</time>
      </trkpt>
      <trkpt lat="49.947880" lon="8.029760">
        <time>2010-02-14T12:10:14Z</time>
      </trkpt>
      <trkpt lat="49.947880" lon="8.029760">
        <time>2010-02-14T12:10:20Z</time>
      </trkpt>
      <trkpt lat="49.947880" lon="8.029760">
        <time>2010-02-14T12:10:22Z</time>
      </trkpt>
      <trkpt lat="49.947880" lon="8.029760">
        <time>2010-02-14T12:10:40Z</time>
      </trkpt>
      <trkpt lat="49.947770" lon="8.030100">
        <time>2010-02-14T12:10:44Z</time>
      </trkpt>
      <trkpt lat="49.947730" lon="8.030210">
        <time>2010-02-14T12:10:54Z</time>
      </trkpt>
      <trkpt lat="49.947730" lon="8.030210">
        <time>2010-02-14T12:10:56Z</time>
      </trkpt>
      <trkpt lat="49.947630" lon="8.030290">
        <time>2010-02-14T12:11:00Z</time>
      </trkpt>
      <trkpt lat="49.947630" lon="8.030290">
        <time>2010-02-14T12:11:08Z</time>
      </trkpt>
      <trkpt lat="49.947630" lon="8.030290">
        <time>2010-02-14T12:11:12Z</time>
      </trkpt>
      <trkpt lat="49.947630" lon="8.030290">
        <time>2010-02-14T12:11:16Z</time>
      </trkpt>
      <trkpt lat="49.947330" lon="8.030100">
        <time>2010-02-14T12:11:22Z</time>
      </trkpt>
      <trkpt lat="49.947330" lon="8.030100">
        <time>2010-02-14T12:11:30Z</time>
      </trkpt>
      <trkpt lat="49.947330" lon="8.030100">
        <time>2010-02-14T12:11:34Z</time>
      </trkpt>
      <trkpt lat="49.947330" lon="8.030100">
        <time>2010-02-14T12:11:42Z</time>
      </trkpt>
      <trkpt lat="49.947090" lon="8.029860">
        <time>2010-02-14T12:11:48Z</time>
      </trkpt>
      <trkpt lat="49.947090" lon="8.029860">
        <time>2010-02-14T12:11:56Z</time>
      </trkpt>
      <trkpt lat="49.947090" lon="8.029860">
        <time>2010-02-14T12:12:02Z</time>
      </trkpt>
      <trkpt lat="49.947000" lon="8.029710">
        <time>2010-02-14T12:12:06Z</time>
      </trkpt>
      <trkpt lat="49.946980" lon="8.029730">
        <time>2010-02-14T12:12:10Z</time>
      </trkpt>
      <trkpt lat="49.946980" lon="8.029730">
        <time>2010-02-14T12:12:14Z</time>
      </trkpt>
      <trkpt lat="49.946980" lon="8.029730">
        <time>2010-02-14T12:12:18Z</time>
      </trkpt>
      <trkpt lat="49.946810" lon="8.029890">
        <time>2010-02-14T12:12:22Z</time>
      </trkpt>
      <trkpt lat="49.946810" lon="8.029890">
        <time>2010-02-14T12:12:30Z</time>
      </trkpt>
      <trkpt lat="49.946770" lon="8.030190">
        <time>2010-02-14T12:12:36Z</time>
      </trkpt>
      <trkpt lat="49.946740" lon="8.030230">
        <time>2010-02-14T12:12:42Z</time>
      </trkpt>
      <trkpt lat="49.946740" lon="8.030230">
        <time>2010-02-14T12:12:50Z</time>
      </trkpt>
      <trkpt lat="49.946680" lon="8.030340">
        <time>2010-02-14T12:12:54Z</time>
      </trkpt>
      <trkpt lat="49.946680" lon="8.030340">
        <time>2010-02-14T12:13:00Z</time>
      </trkpt>
      <trkpt lat="49.946620" lon="8.030490">
        <time>2010-02-14T12:13:04Z</time>
      </trkpt>
      <trkpt lat="49.946620" lon="8.030490">
        <time>2010-02-14T12:13:12Z</time>
      </trkpt>
      <trkpt lat="49.946520" lon="8.030640">
        <time>2010-02-14T12:13:16Z</time>
      </trkpt>
      <trkpt lat="49.946520" lon="8.030640">
        <time>2010-02-14T12:13:24Z</time>
      </trkpt>
      <trkpt lat="49.946520" lon="8.030640">
        <time>2010-02-14T12:13:28Z</time>
      </trkpt>
      <trkpt lat="49.946520" lon="8.030640">
        <time>2010-02-14T12:13:32Z</time>
      </trkpt>
      <trkpt lat="49.946370" lon="8.030960">
        <time>2010-02-14T12:13:36Z</time>
      </trkpt>
      <trkpt lat="49.946350" lon="8.031000">
        <time>2010-02-14T12:13:44Z</time>
      </trkpt>
      <trkpt lat="49.946350" lon="8.031000">
        <time>2010-02-14T12:13:48Z</time>
      </trkpt>
      <trkpt lat="49.946350" lon="8.031000">
        <time>2010-02-14T12:13:50Z</time>
      </trkpt>
      <trkpt lat="49.946350" lon="8.031000">
        <time>2010-02-14T12:13:56Z</time>
      </trkpt>
      <trkpt lat="49.946240" lon="8.031240">
        <time>2010-02-14T12:14:00Z</time>
      </trkpt>
      <trkpt lat="49.946240" lon="8.031240">
        <time>2010-02-14T12:14:08Z</time>
      </trkpt>
      <trkpt lat="49.946240" lon="8.031240">
        <time>2010-02-14T12:14:10Z</time>
      </trkpt>
      <trkpt lat="49.946240" lon="8.031240">
        <time>2010-02-14T12:14:16Z</time>
      </trkpt>
      <trkpt lat="49.946120" lon="8.031470">
        <time>2010-02-14T12:14:20Z</time>
      </trkpt>
      <trkpt lat="49.946120" lon="8.031470">
        <time>2010-02-14T12:14:28Z</time>
      </trkpt>
      <trkpt lat="49.946120" lon="8.031470">
        <time>2010-02-14T12:14:30Z</time>
      </trkpt>
      <trkpt lat="49.946120" lon="8.031470">
        <time>2010-02-14T12:14:36Z</time>
      </trkpt>
      <trkpt lat="49.945990" lon="8.031710">
        <time>2010-02-14T12:14:40Z</time>
      </trkpt>
      <trkpt lat="49.945990" lon="8.031710">
        <time>2010-02-14T12:14:48Z</time>
      </trkpt>
      <trkpt lat="49.945990" lon="8.031710">
        <time>2010-02-14T12:14:50Z</time>
      </trkpt>
      <trkpt lat="49.945990" lon="8.031710">
        <time>2010-02-14T12:15:00Z</time>
      </trkpt>
      <trkpt lat="49.945860" lon="8.032070">
        <time>2010-02-14T12:15:06Z</time>
      </trkpt>
      <trkpt lat="49.945800" lon="8.032180">
        <time>2010-02-14T12:15:14Z</time>
      </trkpt>
      <trkpt lat="49.945800" lon="8.032180">
        <time>2010-02-14T12:15:18Z</time>
      </trkpt>
      <trkpt lat="49.945720" lon="8.032440">
        <time>2010-02-14T12:15:22Z</time>
      </trkpt>
      <trkpt lat="49.945720" lon="8.032440">
        <time>2010-02-14T12:15:30Z</time>
      </trkpt>
      <trkpt lat="49.945720" lon="8.032440">
        <time>2010-02-14T12:15:32Z</time>
      </trkpt>
      <trkpt lat="49.945720" lon="8.032440">
        <time>2010-02-14T12:15:42Z</time>
      </trkpt>
      <trkpt lat="49.945480" lon="8.032740">
        <time>2010-02-14T12:15:48Z</time>
      </trkpt>
      <trkpt lat="49.945480" lon="8.032740">
        <time>2010-02-14T12:15:56Z</time>
      </trkpt>
      <trkpt lat="49.945330" lon="8.033020">
        <time>2010-02-14T12:16:00Z</time>
      </trkpt>
      <trkpt lat="49.945330" lon="8.033020">
        <time>2010-02-14T12:16:06Z</time>
      </trkpt>
      <trkpt lat="49.945330" lon="8.033020">
        <time>2010-02-14T12:16:08Z</time>
      </trkpt>
      <trkpt lat="49.945330" lon="8.033020">
        <time>2010-02-14T12:16:16Z</time>
      </trkpt>
      <trkpt lat="49.945190" lon="8.033320">
        <time>2010-02-14T12:16:20Z</time>
      </trkpt>
      <trkpt lat="49.945190" lon="8.033320">
        <time>2010-02-14T12:16:28Z</time>
      </trkpt>
      <trkpt lat="49.945190" lon="8.033320">
        <time>2010-02-14T12:16:30Z</time>
      </trkpt>
      <trkpt lat="49.945190" lon="8.033320">
        <time>2010-02-14T12:16:42Z</time>
      </trkpt>
      <trkpt lat="49.944950" lon="8.033530">
        <time>2010-02-14T12:16:50Z</time>
      </trkpt>
      <trkpt lat="49.944950" lon="8.033530">
        <time>2010-02-14T12:16:54Z</time>
      </trkpt>
      <trkpt lat="49.944870" lon="8.033640">
        <time>2010-02-14T12:16:58Z</time>
      </trkpt>
      <trkpt lat="49.944800" lon="8.033750">
        <time>2010-02-14T12:17:10Z</time>
      </trkpt>
      <trkpt lat="49.944800" lon="8.033750">
        <time>2010-02-14T12:17:14Z</time>
      </trkpt>
      <trkpt lat="49.944800" lon="8.033750">
        <time>2010-02-14T12:17:18Z</time>
      </trkpt>
      <trkpt lat="49.944660" lon="8.033880">
        <time>2010-02-14T12:17:22Z</time>
      </trkpt>
      <trkpt lat="49.944580" lon="8.034090">
        <time>2010-02-14T12:17:28Z</time>
      </trkpt>
      <trkpt lat="49.944580" lon="8.034090">
        <time>2010-02-14T12:17:34Z</time>
      </trkpt>
      <trkpt lat="49.944580" lon="8.034090">
        <time>2010-02-14T12:17:36Z</time>
      </trkpt>
      <trkpt lat="49.944580" lon="8.034090">
        <time>2010-02-14T12:17:50Z</time>
      </trkpt>
      <trkpt lat="49.944430" lon="8.034500">
        <time>2010-02-14T12:17:56Z</time>
      </trkpt>
      <trkpt lat="49.944350" lon="8.034580">
        <time>2010-02-14T12:18:00Z</time>
      </trkpt>
      <trkpt lat="49.944350" lon="8.034580">
        <time>2010-02-14T12:18:04Z</time>
      </trkpt>
      <trkpt lat="49.944350" lon="8.034580">
        <time>2010-02-14T12:18:08Z</time>
      </trkpt>
      <trkpt lat="49.944220" lon="8.034670">
        <time>2010-02-14T12:18:12Z</time>
      </trkpt>
      <trkpt lat="49.944120" lon="8.034760">
        <time>2010-02-14T12:18:22Z</time>
      </trkpt>
      <trkpt lat="49.944120" lon="8.034760">
        <time>2010-02-14T12:18:26Z</time>
      </trkpt>
      <trkpt lat="49.944120" lon="8.034760">
        <time>2010-02-14T12:18:30Z</time>
      </trkpt>
      <trkpt lat="49.943970" lon="8.034970">
        <time>2010-02-14T12:18:34Z</time>
      </trkpt>
      <trkpt lat="49.943970" lon="8.034970">
        <time>2010-02-14T12:18:42Z</time>
      </trkpt>
      <trkpt lat="49.943970" lon="8.034970">
        <time>2010-02-14T12:18:46Z</time>
      </trkpt>
      <trkpt lat="49.943840" lon="8.035160">
        <time>2010-02-14T12:18:50Z</time>
      </trkpt>
      <trkpt lat="49.943840" lon="8.035160">
        <time>2010-02-14T12:18:58Z</time>
      </trkpt>
      <trkpt lat="49.943840" lon="8.035160">
        <time>2010-02-14T12:19:02Z</time>
      </trkpt>
      <trkpt lat="49.943840" lon="8.035160">
        <time>2010-02-14T12:19:06Z</time>
      </trkpt>
      <trkpt lat="49.943640" lon="8.035490">
        <time>2010-02-14T12:19:12Z</time>
      </trkpt>
      <trkpt lat="49.943640" lon="8.035490">
        <time>2010-02-14T12:19:18Z</time>
      </trkpt>
      <trkpt lat="49.943640" lon="8.035490">
        <time>2010-02-14T12:19:20Z</time>
      </trkpt>
      <trkpt lat="49.943530" lon="8.035570">
        <time>2010-02-14T12:19:24Z</time>
      </trkpt>
      <trkpt lat="49.943530" lon="8.035570">
        <time>2010-02-14T12:19:32Z</time>
      </trkpt>
      <trkpt lat="49.943530" lon="8.035570">
        <time>2010-02-14T12:19:36Z</time>
      </trkpt>
      <trkpt lat="49.943420" lon="8.035610">
        <time>2010-02-14T12:19:40Z</time>
      </trkpt>
      <trkpt lat="49.943420" lon="8.035610">
        <time>2010-02-14T12:19:48Z</time>
      </trkpt>
      <trkpt lat="49.943380" lon="8.035610">
        <time>2010-02-14T12:19:50Z</time>
      </trkpt>
      <trkpt lat="49.943350" lon="8.035610">
        <time>2010-02-14T12:19:52Z</time>
      </trkpt>
      <trkpt lat="49.943240" lon="8.035680">
        <time>2010-02-14T12:20:00Z</time>
      </trkpt>
      <trkpt lat="49.943240" lon="8.035680">
        <time>2010-02-14T12:20:04Z</time>
      </trkpt>
      <trkpt lat="49.943240" lon="8.035680">
        <time>2010-02-14T12:20:08Z</time>
      </trkpt>
      <trkpt lat="49.943090" lon="8.035720">
        <time>2010-02-14T12:20:12Z</time>
      </trkpt>
      <trkpt lat="49.943090" lon="8.035720">
        <time>2010-02-14T12:20:22Z</time>
      </trkpt>
      <trkpt lat="49.943090" lon="8.035720">
        <time>2010-02-14T12:20:26Z</time>
      </trkpt>
      <trkpt lat="49.942980" lon="8.035760">
        <time>2010-02-14T12:20:30Z</time>
      </trkpt>
      <trkpt lat="49.942980" lon="8.035760">
        <time>2010-02-14T12:20:38Z</time>
      </trkpt>
      <trkpt lat="49.942720" lon="8.035890">
        <time>2010-02-14T12:20:44Z</time>
      </trkpt>
      <trkpt lat="49.942650" lon="8.036020">
        <time>2010-02-14T12:20:48Z</time>
      </trkpt>
      <trkpt lat="49.942540" lon="8.036150">
        <time>2010-02-14T12:20:52Z</time>
      </trkpt>
      <trkpt lat="49.942510" lon="8.036220">
        <time>2010-02-14T12:21:00Z</time>
      </trkpt>
      <trkpt lat="49.942510" lon="8.036220">
        <time>2010-02-14T12:21:04Z</time>
      </trkpt>
      <trkpt lat="49.942510" lon="8.036220">
        <time>2010-02-14T12:21:06Z</time>
      </trkpt>
      <trkpt lat="49.942510" lon="8.036220">
        <time>2010-02-14T12:21:10Z</time>
      </trkpt>
      <trkpt lat="49.942390" lon="8.036320">
        <time>2010-02-14T12:21:14Z</time>
      </trkpt>
      <trkpt lat="49.942390" lon="8.036320">
        <time>2010-02-14T12:21:22Z</time>
      </trkpt>
      <trkpt lat="49.942390" lon="8.036320">
        <time>2010-02-14T12:21:26Z</time>
      </trkpt>
      <trkpt lat="49.942390" lon="8.036320">
        <time>2010-02-14T12:21:38Z</time>
      </trkpt>
      <trkpt lat="49.942130" lon="8.036370">
        <time>2010-02-14T12:21:46Z</time>
      </trkpt>
      <trkpt lat="49.942030" lon="8.036450">
        <time>2010-02-14T12:21:50Z</time>
      </trkpt>
      <trkpt lat="49.941930" lon="8.036520">
        <time>2010-02-14T12:21:58Z</time>
      </trkpt>
      <trkpt lat="49.941750" lon="8.036620">
        <time>2010-02-14T12:22:16Z</time>
      </trkpt>
      <trkpt lat="49.941700" lon="8.036750">
        <time>2010-02-14T12:22:20Z</time>
      </trkpt>
      <trkpt lat="49.941700" lon="8.036750">
        <time>2010-02-14T12:22:26Z</time>
      </trkpt>
      <trkpt lat="49.941700" lon="8.036750">
        <time>2010-02-14T12:22:28Z</time>
      </trkpt>
      <trkpt lat="49.941700" lon="8.036750">
        <time>2010-02-14T12:22:32Z</time>
      </trkpt>
      <trkpt lat="49.941610" lon="8.036820">
        <time>2010-02-14T12:22:36Z</time>
      </trkpt>
      <trkpt lat="49.941490" lon="8.036900">
        <time>2010-02-14T12:22:44Z</time>
      </trkpt>
      <trkpt lat="49.941490" lon="8.036900">
        <time>2010-02-14T12:22:48Z</time>
      </trkpt>
      <trkpt lat="49.941410" lon="8.036970">
        <time>2010-02-14T12:22:52Z</time>
      </trkpt>
      <trkpt lat="49.941320" lon="8.037050">
        <time>2010-02-14T12:23:04Z</time>
      </trkpt>
      <trkpt lat="49.941320" lon="8.037050">
        <time>2010-02-14T12:23:08Z</time>
      </trkpt>
      <trkpt lat="49.941320" lon="8.037050">
        <time>2010-02-14T12:23:12Z</time>
      </trkpt>
      <trkpt lat="49.941320" lon="8.037050">
        <time>2010-02-14T12:23:16Z</time>
      </trkpt>
      <trkpt lat="49.941070" lon="8.037270">
        <time>2010-02-14T12:23:22Z</time>
      </trkpt>
      <trkpt lat="49.941070" lon="8.037270">
        <time>2010-02-14T12:23:30Z</time>
      </trkpt>
      <trkpt lat="49.941070" lon="8.037270">
        <time>2010-02-14T12:23:36Z</time>
      </trkpt>
      <trkpt lat="49.940880" lon="8.037350">
        <time>2010-02-14T12:23:40Z</time>
      </trkpt>
      <trkpt lat="49.940880" lon="8.037350">
        <time>2010-02-14T12:23:48Z</time>
      </trkpt>
      <trkpt lat="49.940880" lon="8.037350">
        <time>2010-02-14T12:23:52Z</time>
      </trkpt>
      <trkpt lat="49.940760" lon="8.037570">
        <time>2010-02-14T12:23:58Z</time>
      </trkpt>
      <trkpt lat="49.940760" lon="8.037570">
        <time>2010-02-14T12:24:04Z</time>
      </trkpt>
      <trkpt lat="49.940760" lon="8.037570">
        <time>2010-02-14T12:24:06Z</time>
      </trkpt>
      <trkpt lat="49.940760" lon="8.037570">
        <time>2010-02-14T12:24:10Z</time>
      </trkpt>
      <trkpt lat="49.940620" lon="8.037670">
        <time>2010-02-14T12:24:14Z</time>
      </trkpt>
      <trkpt lat="49.940620" lon="8.037670">
        <time>2010-02-14T12:24:22Z</time>
      </trkpt>
      <trkpt lat="49.940460" lon="8.037780">
        <time>2010-02-14T12:24:26Z</time>
      </trkpt>
      <trkpt lat="49.940380" lon="8.037890">
        <time>2010-02-14T12:24:34Z</time>
      </trkpt>
      <trkpt lat="49.940380" lon="8.037890">
        <time>2010-02-14T12:24:38Z</time>
      </trkpt>
      <trkpt lat="49.940380" lon="8.037890">
        <time>2010-02-14T12:24:42Z</time>
      </trkpt>
      <trkpt lat="49.940380" lon="8.037890">
        <time>2010-02-14T12:24:58Z</time>
      </trkpt>
      <trkpt lat="49.940120" lon="8.038000">
        <time>2010-02-14T12:25:06Z</time>
      </trkpt>
      <trkpt lat="49.940120" lon="8.038000">
        <time>2010-02-14T12:25:10Z</time>
      </trkpt>
      <trkpt lat="49.940120" lon="8.038000">
        <time>2010-02-14T12:25:14Z</time>
      </trkpt>
      <trkpt lat="49.939960" lon="8.038120">
        <time>2010-02-14T12:25:18Z</time>
      </trkpt>
      <trkpt lat="49.939960" lon="8.038120">
        <time>2010-02-14T12:25:26Z</time>
      </trkpt>
      <trkpt lat="49.939960" lon="8.038120">
        <time>2010-02-14T12:25:30Z</time>
      </trkpt>
      <trkpt lat="49.939800" lon="8.038300">
        <time>2010-02-14T12:25:34Z</time>
      </trkpt>
      <trkpt lat="49.939680" lon="8.038400">
        <time>2010-02-14T12:25:44Z</time>
      </trkpt>
      <trkpt lat="49.939680" lon="8.038400">
        <time>2010-02-14T12:25:48Z</time>
      </trkpt>
      <trkpt lat="49.939580" lon="8.038490">
        <time>2010-02-14T12:25:52Z</time>
      </trkpt>
      <trkpt lat="49.939580" lon="8.038490">
        <time>2010-02-14T12:26:00Z</time>
      </trkpt>
      <trkpt lat="49.939580" lon="8.038490">
        <time>2010-02-14T12:26:04Z</time>
      </trkpt>
      <trkpt lat="49.939430" lon="8.038580">
        <time>2010-02-14T12:26:08Z</time>
      </trkpt>
      <trkpt lat="49.939340" lon="8.038660">
        <time>2010-02-14T12:26:18Z</time>
      </trkpt>
      <trkpt lat="49.939340" lon="8.038660">
        <time>2010-02-14T12:26:22Z</time>
      </trkpt>
      <trkpt lat="49.939340" lon="8.038660">
        <time>2010-02-14T12:26:26Z</time>
      </trkpt>
      <trkpt lat="49.939230" lon="8.038790">
        <time>2010-02-14T12:26:30Z</time>
      </trkpt>
      <trkpt lat="49.939230" lon="8.038790">
        <time>2010-02-14T12:26:38Z</time>
      </trkpt>
      <trkpt lat="49.939230" lon="8.038790">
        <time>2010-02-14T12:26:42Z</time>
      </trkpt>
      <trkpt lat="49.939070" lon="8.038960">
        <time>2010-02-14T12:26:46Z</time>
      </trkpt>
      <trkpt lat="49.939070" lon="8.038960">
        <time>2010-02-14T12:26:54Z</time>
      </trkpt>
      <trkpt lat="49.939070" lon="8.038960">
        <time>2010-02-14T12:26:58Z</time>
      </trkpt>
      <trkpt lat="49.939070" lon="8.038960">
        <time>2010-02-14T12:27:06Z</time>
      </trkpt>
      <trkpt lat="49.938890" lon="8.039130">
        <time>2010-02-14T12:27:10Z</time>
      </trkpt>
      <trkpt lat="49.938890" lon="8.039130">
        <time>2010-02-14T12:27:18Z</time>
      </trkpt>
      <trkpt lat="49.938780" lon="8.039240">
        <time>2010-02-14T12:27:22Z</time>
      </trkpt>
      <trkpt lat="49.938780" lon="8.039240">
        <time>2010-02-14T12:27:30Z</time>
      </trkpt>
      <trkpt lat="49.938780" lon="8.039240">
        <time>2010-02-14T12:27:34Z</time>
      </trkpt>
      <trkpt lat="49.938560" lon="8.039560">
        <time>2010-02-14T12:27:40Z</time>
      </trkpt>
      <trkpt lat="49.938520" lon="8.039690">
        <time>2010-02-14T12:27:48Z</time>
      </trkpt>
      <trkpt lat="49.938520" lon="8.039690">
        <time>2010-02-14T12:27:52Z</time>
      </trkpt>
      <trkpt lat="49.938520" lon="8.039690">
        <time>2010-02-14T12:27:54Z</time>
      </trkpt>
      <trkpt lat="49.938520" lon="8.039690">
        <time>2010-02-14T12:27:56Z</time>
      </trkpt>
      <trkpt lat="49.938420" lon="8.039760">
        <time>2010-02-14T12:28:02Z</time>
      </trkpt>
      <trkpt lat="49.938340" lon="8.039780">
        <time>2010-02-14T12:28:08Z</time>
      </trkpt>
      <trkpt lat="49.938340" lon="8.039780">
        <time>2010-02-14T12:28:16Z</time>
      </trkpt>
      <trkpt lat="49.938250" lon="8.039840">
        <time>2010-02-14T12:28:20Z</time>
      </trkpt>
      <trkpt lat="49.938170" lon="8.039930">
        <time>2010-02-14T12:28:28Z</time>
      </trkpt>
      <trkpt lat="49.938020" lon="8.040140">
        <time>2010-02-14T12:28:40Z</time>
      </trkpt>
      <trkpt lat="49.937950" lon="8.040270">
        <time>2010-02-14T12:28:50Z</time>
      </trkpt>
      <trkpt lat="49.937950" lon="8.040270">
        <time>2010-02-14T12:28:52Z</time>
      </trkpt>
      <trkpt lat="49.937950" lon="8.040270">
        <time>2010-02-14T12:28:54Z</time>
      </trkpt>
      <trkpt lat="49.937950" lon="8.040270">
        <time>2010-02-14T12:28:58Z</time>
      </trkpt>
      <trkpt lat="49.937870" lon="8.040330">
        <time>2010-02-14T12:29:02Z</time>
      </trkpt>
      <trkpt lat="49.937770" lon="8.040400">
        <time>2010-02-14T12:29:16Z</time>
      </trkpt>
      <trkpt lat="49.937770" lon="8.040400">
        <time>2010-02-14T12:29:20Z</time>
      </trkpt>
      <trkpt lat="49.937590" lon="8.040510">
        <time>2010-02-14T12:29:26Z</time>
      </trkpt>
      <trkpt lat="49.937510" lon="8.040550">
        <time>2010-02-14T12:29:34Z</time>
      </trkpt>
      <trkpt lat="49.937510" lon="8.040550">
        <time>2010-02-14T12:29:38Z</time>
      </trkpt>
      <trkpt lat="49.937510" lon="8.040550">
        <time>2010-02-14T12:29:42Z</time>
      </trkpt>
      <trkpt lat="49.937420" lon="8.040570">
        <time>2010-02-14T12:29:46Z</time>
      </trkpt>
      <trkpt lat="49.937420" lon="8.040570">
        <time>2010-02-14T12:29:54Z</time>
      </trkpt>
      <trkpt lat="49.937420" lon="8.040570">
        <time>2010-02-14T12:29:58Z</time>
      </trkpt>
      <trkpt lat="49.937420" lon="8.040570">
        <time>2010-02-14T12:30:02Z</time>
      </trkpt>
      <trkpt lat="49.937230" lon="8.040660">
        <time>2010-02-14T12:30:06Z</time>
      </trkpt>
      <trkpt lat="49.937230" lon="8.040660">
        <time>2010-02-14T12:30:14Z</time>
      </trkpt>
      <trkpt lat="49.937140" lon="8.040680">
        <time>2010-02-14T12:30:18Z</time>
      </trkpt>
      <trkpt lat="49.936990" lon="8.040680">
        <time>2010-02-14T12:30:26Z</time>
      </trkpt>
      <trkpt lat="49.936840" lon="8.040700">
        <time>2010-02-14T12:30:38Z</time>
      </trkpt>
      <trkpt lat="49.936840" lon="8.040700">
        <time>2010-02-14T12:30:42Z</time>
      </trkpt>
      <trkpt lat="49.936790" lon="8.040660">
        <time>2010-02-14T12:30:46Z</time>
      </trkpt>
      <trkpt lat="49.936790" lon="8.040660">
        <time>2010-02-14T12:30:54Z</time>
      </trkpt>
      <trkpt lat="49.936700" lon="8.040660">
        <time>2010-02-14T12:31:02Z</time>
      </trkpt>
      <trkpt lat="49.936600" lon="8.040660">
        <time>2010-02-14T12:31:06Z</time>
      </trkpt>
      <trkpt lat="49.936470" lon="8.040700">
        <time>2010-02-14T12:31:14Z</time>
      </trkpt>
      <trkpt lat="49.936470" lon="8.040700">
        <time>2010-02-14T12:31:18Z</time>
      </trkpt>
      <trkpt lat="49.936390" lon="8.040740">
        <time>2010-02-14T12:31:22Z</time>
      </trkpt>
      <trkpt lat="49.936390" lon="8.040740">
        <time>2010-02-14T12:31:30Z</time>
      </trkpt>
      <trkpt lat="49.936270" lon="8.040790">
        <time>2010-02-14T12:31:34Z</time>
      </trkpt>
      <trkpt lat="49.936160" lon="8.040850">
        <time>2010-02-14T12:31:42Z</time>
      </trkpt>
      <trkpt lat="49.936140" lon="8.040870">
        <time>2010-02-14T12:31:48Z</time>
      </trkpt>
      <trkpt lat="49.936030" lon="8.040910">
        <time>2010-02-14T12:31:52Z</time>
      </trkpt>
      <trkpt lat="49.936030" lon="8.040910">
        <time>2010-02-14T12:32:00Z</time>
      </trkpt>
      <trkpt lat="49.936030" lon="8.040910">
        <time>2010-02-14T12:32:04Z</time>
      </trkpt>
      <trkpt lat="49.935920" lon="8.040910">
        <time>2010-02-14T12:32:08Z</time>
      </trkpt>
      <trkpt lat="49.935810" lon="8.040940">
        <time>2010-02-14T12:32:20Z</time>
      </trkpt>
      <trkpt lat="49.935810" lon="8.040940">
        <time>2010-02-14T12:32:24Z</time>
      </trkpt>
      <trkpt lat="49.935660" lon="8.041040">
        <time>2010-02-14T12:32:28Z</time>
      </trkpt>
      <trkpt lat="49.935660" lon="8.041040">
        <time>2010-02-14T12:32:36Z</time>
      </trkpt>
      <trkpt lat="49.935560" lon="8.041090">
        <time>2010-02-14T12:32:40Z</time>
      </trkpt>
      <trkpt lat="49.935440" lon="8.041130">
        <time>2010-02-14T12:32:50Z</time>
      </trkpt>
      <trkpt lat="49.935440" lon="8.041130">
        <time>2010-02-14T12:32:54Z</time>
      </trkpt>
      <trkpt lat="49.935440" lon="8.041130">
        <time>2010-02-14T12:32:58Z</time>
      </trkpt>
      <trkpt lat="49.935440" lon="8.041130">
        <time>2010-02-14T12:33:02Z</time>
      </trkpt>
      <trkpt lat="49.935230" lon="8.041190">
        <time>2010-02-14T12:33:06Z</time>
      </trkpt>
      <trkpt lat="49.935140" lon="8.041240">
        <time>2010-02-14T12:33:14Z</time>
      </trkpt>
      <trkpt lat="49.935140" lon="8.041240">
        <time>2010-02-14T12:33:18Z</time>
      </trkpt>
      <trkpt lat="49.935090" lon="8.041260">
        <time>2010-02-14T12:33:20Z</time>
      </trkpt>
      <trkpt lat="49.935010" lon="8.041240">
        <time>2010-02-14T12:33:30Z</time>
      </trkpt>
      <trkpt lat="49.934880" lon="8.041240">
        <time>2010-02-14T12:33:40Z</time>
      </trkpt>
      <trkpt lat="49.934860" lon="8.041260">
        <time>2010-02-14T12:33:48Z</time>
      </trkpt>
      <trkpt lat="49.934860" lon="8.041260">
        <time>2010-02-14T12:33:52Z</time>
      </trkpt>
      <trkpt lat="49.934860" lon="8.041260">
        <time>2010-02-14T12:33:56Z</time>
      </trkpt>
      <trkpt lat="49.934660" lon="8.041320">
        <time>2010-02-14T12:34:00Z</time>
      </trkpt>
      <trkpt lat="49.934660" lon="8.041320">
        <time>2010-02-14T12:34:08Z</time>
      </trkpt>
      <trkpt lat="49.934470" lon="8.041470">
        <time>2010-02-14T12:34:12Z</time>
      </trkpt>
      <trkpt lat="49.934450" lon="8.041490">
        <time>2010-02-14T12:34:18Z</time>
      </trkpt>
      <trkpt lat="49.934450" lon="8.041490">
        <time>2010-02-14T12:34:20Z</time>
      </trkpt>
      <trkpt lat="49.934370" lon="8.041580">
        <time>2010-02-14T12:34:24Z</time>
      </trkpt>
      <trkpt lat="49.934230" lon="8.041670">
        <time>2010-02-14T12:34:36Z</time>
      </trkpt>
      <trkpt lat="49.934220" lon="8.041690">
        <time>2010-02-14T12:34:40Z</time>
      </trkpt>
      <trkpt lat="49.934220" lon="8.041690">
        <time>2010-02-14T12:34:46Z</time>
      </trkpt>
      <trkpt lat="49.934220" lon="8.041690">
        <time>2010-02-14T12:34:48Z</time>
      </trkpt>
      <trkpt lat="49.934220" lon="8.041690">
        <time>2010-02-14T12:35:06Z</time>
      </trkpt>
      <trkpt lat="49.934200" lon="8.041840">
        <time>2010-02-14T12:35:10Z</time>
      </trkpt>
      <trkpt lat="49.934200" lon="8.041840">
        <time>2010-02-14T12:35:20Z</time>
      </trkpt>
      <trkpt lat="49.934200" lon="8.041840">
        <time>2010-02-14T12:35:24Z</time>
      </trkpt>
      <trkpt lat="49.934200" lon="8.041840">
        <time>2010-02-14T12:35:54Z</time>
      </trkpt>
      <trkpt lat="49.934040" lon="8.041880">
        <time>2010-02-14T12:35:58Z</time>
      </trkpt>
      <trkpt lat="49.934040" lon="8.041880">
        <time>2010-02-14T12:36:06Z</time>
      </trkpt>
      <trkpt lat="49.933940" lon="8.041970">
        <time>2010-02-14T12:36:10Z</time>
      </trkpt>
      <trkpt lat="49.933940" lon="8.041970">
        <time>2010-02-14T12:36:18Z</time>
      </trkpt>
      <trkpt lat="49.933890" lon="8.042070">
        <time>2010-02-14T12:36:22Z</time>
      </trkpt>
      <trkpt lat="49.933890" lon="8.042070">
        <time>2010-02-14T12:36:30Z</time>
      </trkpt>
      <trkpt lat="49.933890" lon="8.042070">
        <time>2010-02-14T12:36:32Z</time>
      </trkpt>
      <trkpt lat="49.933880" lon="8.042090">
        <time>2010-02-14T12:36:34Z</time>
      </trkpt>
      <trkpt lat="49.933810" lon="8.042270">
        <time>2010-02-14T12:36:38Z</time>
      </trkpt>
      <trkpt lat="49.933800" lon="8.042330">
        <time>2010-02-14T12:36:46Z</time>
      </trkpt>
      <trkpt lat="49.933790" lon="8.042390">
        <time>2010-02-14T12:36:50Z</time>
      </trkpt>
      <trkpt lat="49.933780" lon="8.042460">
        <time>2010-02-14T12:36:58Z</time>
      </trkpt>
      <trkpt lat="49.933770" lon="8.042550">
        <time>2010-02-14T12:37:02Z</time>
      </trkpt>
      <trkpt lat="49.933750" lon="8.042610">
        <time>2010-02-14T12:37:10Z</time>
      </trkpt>
      <trkpt lat="49.933700" lon="8.042780">
        <time>2010-02-14T12:37:16Z</time>
      </trkpt>
      <trkpt lat="49.933690" lon="8.042820">
        <time>2010-02-14T12:37:22Z</time>
      </trkpt>
      <trkpt lat="49.933690" lon="8.042820">
        <time>2010-02-14T12:37:28Z</time>
      </trkpt>
      <trkpt lat="49.933690" lon="8.042820">
        <time>2010-02-14T12:37:30Z</time>
      </trkpt>
      <trkpt lat="49.933690" lon="8.042820">
        <time>2010-02-14T12:37:36Z</time>
      </trkpt>
      <trkpt lat="49.933610" lon="8.043100">
        <time>2010-02-14T12:37:40Z</time>
      </trkpt>
      <trkpt lat="49.933660" lon="8.043150">
        <time>2010-02-14T12:37:50Z</time>
      </trkpt>
      <trkpt lat="49.933710" lon="8.043170">
        <time>2010-02-14T12:38:04Z</time>
      </trkpt>
      <trkpt lat="49.933710" lon="8.043170">
        <time>2010-02-14T12:38:08Z</time>
      </trkpt>
      <trkpt lat="49.933710" lon="8.043170">
        <time>2010-02-14T12:38:12Z</time>
      </trkpt>
      <trkpt lat="49.933710" lon="8.043170">
        <time>2010-02-14T12:38:40Z</time>
      </trkpt>
      <trkpt lat="49.933580" lon="8.043170">
        <time>2010-02-14T12:38:46Z</time>
      </trkpt>
      <trkpt lat="49.933580" lon="8.043170">
        <time>2010-02-14T12:38:54Z</time>
      </trkpt>
      <trkpt lat="49.933580" lon="8.043170">
        <time>2010-02-14T12:38:58Z</time>
      </trkpt>
      <trkpt lat="49.933580" lon="8.043170">
        <time>2010-02-14T12:39:26Z</time>
      </trkpt>
      <trkpt lat="49.933380" lon="8.043620">
        <time>2010-02-14T12:39:32Z</time>
      </trkpt>
      <trkpt lat="49.933330" lon="8.043810">
        <time>2010-02-14T12:39:38Z</time>
      </trkpt>
      <trkpt lat="49.933290" lon="8.044000">
        <time>2010-02-14T12:39:48Z</time>
      </trkpt>
      <trkpt lat="49.933260" lon="8.044130">
        <time>2010-02-14T12:39:50Z</time>
      </trkpt>
      <trkpt lat="49.933250" lon="8.044260">
        <time>2010-02-14T12:39:58Z</time>
      </trkpt>
      <trkpt lat="49.933240" lon="8.044370">
        <time>2010-02-14T12:40:06Z</time>
      </trkpt>
      <trkpt lat="49.933240" lon="8.044370">
        <time>2010-02-14T12:40:10Z</time>
      </trkpt>
      <trkpt lat="49.933240" lon="8.044370">
        <time>2010-02-14T12:40:12Z</time>
      </trkpt>
      <trkpt lat="49.933220" lon="8.044560">
        <time>2010-02-14T12:40:16Z</time>
      </trkpt>
      <trkpt lat="49.933230" lon="8.044730">
        <time>2010-02-14T12:40:28Z</time>
      </trkpt>
      <trkpt lat="49.933220" lon="8.044990">
        <time>2010-02-14T12:40:44Z</time>
      </trkpt>
      <trkpt lat="49.933170" lon="8.045140">
        <time>2010-02-14T12:40:54Z</time>
      </trkpt>
      <trkpt lat="49.933150" lon="8.045250">
        <time>2010-02-14T12:41:06Z</time>
      </trkpt>
      <trkpt lat="49.933150" lon="8.045250">
        <time>2010-02-14T12:41:08Z</time>
      </trkpt>
      <trkpt lat="49.933150" lon="8.045250">
        <time>2010-02-14T12:41:10Z</time>
      </trkpt>
      <trkpt lat="49.933080" lon="8.045460">
        <time>2010-02-14T12:41:14Z</time>
      </trkpt>
      <trkpt lat="49.933080" lon="8.045510">
        <time>2010-02-14T12:41:22Z</time>
      </trkpt>
      <trkpt lat="49.933080" lon="8.045510">
        <time>2010-02-14T12:41:26Z</time>
      </trkpt>
      <trkpt lat="49.933080" lon="8.045510">
        <time>2010-02-14T12:41:28Z</time>
      </trkpt>
      <trkpt lat="49.933080" lon="8.045510">
        <time>2010-02-14T12:41:30Z</time>
      </trkpt>
      <trkpt lat="49.933010" lon="8.045790">
        <time>2010-02-14T12:41:34Z</time>
      </trkpt>
      <trkpt lat="49.932960" lon="8.046020">
        <time>2010-02-14T12:41:44Z</time>
      </trkpt>
      <trkpt lat="49.932930" lon="8.046150">
        <time>2010-02-14T12:41:54Z</time>
      </trkpt>
      <trkpt lat="49.932930" lon="8.046150">
        <time>2010-02-14T12:41:56Z</time>
      </trkpt>
      <trkpt lat="49.932930" lon="8.046150">
        <time>2010-02-14T12:41:58Z</time>
      </trkpt>
      <trkpt lat="49.932930" lon="8.046150">
        <time>2010-02-14T12:42:02Z</time>
      </trkpt>
      <trkpt lat="49.932830" lon="8.046470">
        <time>2010-02-14T12:42:06Z</time>
      </trkpt>
      <trkpt lat="49.932780" lon="8.046820">
        <time>2010-02-14T12:42:20Z</time>
      </trkpt>
      <trkpt lat="49.932780" lon="8.046820">
        <time>2010-02-14T12:42:22Z</time>
      </trkpt>
      <trkpt lat="49.932770" lon="8.046880">
        <time>2010-02-14T12:42:24Z</time>
      </trkpt>
      <trkpt lat="49.932750" lon="8.047120">
        <time>2010-02-14T12:42:40Z</time>
      </trkpt>
      <trkpt lat="49.932750" lon="8.047120">
        <time>2010-02-14T12:42:42Z</time>
      </trkpt>
      <trkpt lat="49.932750" lon="8.047120">
        <time>2010-02-14T12:42:44Z</time>
      </trkpt>
      <trkpt lat="49.932750" lon="8.047120">
        <time>2010-02-14T12:42:54Z</time>
      </trkpt>
      <trkpt lat="49.932710" lon="8.047270">
        <time>2010-02-14T12:42:58Z</time>
      </trkpt>
      <trkpt lat="49.932650" lon="8.047540">
        <time>2010-02-14T12:43:18Z</time>
      </trkpt>
      <trkpt lat="49.932630" lon="8.047630">
        <time>2010-02-14T12:43:28Z</time>
      </trkpt>
      <trkpt lat="49.932630" lon="8.047630">
        <time>2010-02-14T12:43:34Z</time>
      </trkpt>
      <trkpt lat="49.932630" lon="8.047630">
        <time>2010-02-14T12:43:36Z</time>
      </trkpt>
      <trkpt lat="49.932630" lon="8.047630">
        <time>2010-02-14T12:43:50Z</time>
      </trkpt>
      <trkpt lat="49.932500" lon="8.048020">
        <time>2010-02-14T12:43:54Z</time>
      </trkpt>
      <trkpt lat="49.932450" lon="8.048190">
        <time>2010-02-14T12:44:02Z</time>
      </trkpt>
      <trkpt lat="49.932320" lon="8.048510">
        <time>2010-02-14T12:44:20Z</time>
      </trkpt>
      <trkpt lat="49.932240" lon="8.048720">
        <time>2010-02-14T12:44:34Z</time>
      </trkpt>
      <trkpt lat="49.932240" lon="8.048720">
        <time>2010-02-14T12:44:36Z</time>
      </trkpt>
      <trkpt lat="49.932220" lon="8.048790">
        <time>2010-02-14T12:44:38Z</time>
      </trkpt>
      <trkpt lat="49.932170" lon="8.048920">
        <time>2010-02-14T12:44:50Z</time>
      </trkpt>
      <trkpt lat="49.932160" lon="8.048960">
        <time>2010-02-14T12:44:52Z</time>
      </trkpt>
      <trkpt lat="49.932130" lon="8.049070">
        <time>2010-02-14T12:45:02Z</time>
      </trkpt>
      <trkpt lat="49.932130" lon="8.049070">
        <time>2010-02-14T12:45:04Z</time>
      </trkpt>
      <trkpt lat="49.932110" lon="8.049130">
        <time>2010-02-14T12:45:06Z</time>
      </trkpt>
      <trkpt lat="49.932060" lon="8.049280">
        <time>2010-02-14T12:45:20Z</time>
      </trkpt>
      <trkpt lat="49.932060" lon="8.049280">
        <time>2010-02-14T12:45:22Z</time>
      </trkpt>
      <trkpt lat="49.932060" lon="8.049280">
        <time>2010-02-14T12:45:24Z</time>
      </trkpt>
      <trkpt lat="49.932060" lon="8.049280">
        <time>2010-02-14T12:45:26Z</time>
      </trkpt>
      <trkpt lat="49.932030" lon="8.049370">
        <time>2010-02-14T12:45:28Z</time>
      </trkpt>
      <trkpt lat="49.931960" lon="8.049560">
        <time>2010-02-14T12:45:42Z</time>
      </trkpt>
      <trkpt lat="49.931930" lon="8.049670">
        <time>2010-02-14T12:45:46Z</time>
      </trkpt>
      <trkpt lat="49.931910" lon="8.049820">
        <time>2010-02-14T12:45:56Z</time>
      </trkpt>
      <trkpt lat="49.931890" lon="8.050100">
        <time>2010-02-14T12:46:12Z</time>
      </trkpt>
      <trkpt lat="49.931880" lon="8.050160">
        <time>2010-02-14T12:46:14Z</time>
      </trkpt>
      <trkpt lat="49.931870" lon="8.050270">
        <time>2010-02-14T12:46:22Z</time>
      </trkpt>
      <trkpt lat="49.931870" lon="8.050270">
        <time>2010-02-14T12:46:26Z</time>
      </trkpt>
      <trkpt lat="49.931850" lon="8.050440">
        <time>2010-02-14T12:46:30Z</time>
      </trkpt>
      <trkpt lat="49.931790" lon="8.050740">
        <time>2010-02-14T12:46:48Z</time>
      </trkpt>
      <trkpt lat="49.931790" lon="8.050740">
        <time>2010-02-14T12:46:50Z</time>
      </trkpt>
      <trkpt lat="49.931790" lon="8.050740">
        <time>2010-02-14T12:46:52Z</time>
      </trkpt>
      <trkpt lat="49.931790" lon="8.050740">
        <time>2010-02-14T12:47:12Z</time>
      </trkpt>
      <trkpt lat="49.931640" lon="8.051060">
        <time>2010-02-14T12:47:16Z</time>
      </trkpt>
      <trkpt lat="49.931600" lon="8.051190">
        <time>2010-02-14T12:47:24Z</time>
      </trkpt>
      <trkpt lat="49.931600" lon="8.051190">
        <time>2010-02-14T12:47:28Z</time>
      </trkpt>
      <trkpt lat="49.931580" lon="8.051280">
        <time>2010-02-14T12:47:30Z</time>
      </trkpt>
      <trkpt lat="49.931530" lon="8.051430">
        <time>2010-02-14T12:47:36Z</time>
      </trkpt>
      <trkpt lat="49.931400" lon="8.051750">
        <time>2010-02-14T12:47:50Z</time>
      </trkpt>
      <trkpt lat="49.931330" lon="8.051920">
        <time>2010-02-14T12:48:02Z</time>
      </trkpt>
      <trkpt lat="49.931330" lon="8.051920">
        <time>2010-02-14T12:48:04Z</time>
      </trkpt>
      <trkpt lat="49.931330" lon="8.051920">
        <time>2010-02-14T12:48:06Z</time>
      </trkpt>
      <trkpt lat="49.931280" lon="8.052050">
        <time>2010-02-14T12:48:10Z</time>
      </trkpt>
      <trkpt lat="49.931210" lon="8.052180">
        <time>2010-02-14T12:48:16Z</time>
      </trkpt>
      <trkpt lat="49.931150" lon="8.052330">
        <time>2010-02-14T12:48:26Z</time>
      </trkpt>
      <trkpt lat="49.931030" lon="8.052650">
        <time>2010-02-14T12:48:44Z</time>
      </trkpt>
      <trkpt lat="49.930990" lon="8.052760">
        <time>2010-02-14T12:48:54Z</time>
      </trkpt>
      <trkpt lat="49.930980" lon="8.052800">
        <time>2010-02-14T12:48:56Z</time>
      </trkpt>
      <trkpt lat="49.930930" lon="8.052870">
        <time>2010-02-14T12:49:04Z</time>
      </trkpt>
      <trkpt lat="49.930860" lon="8.052950">
        <time>2010-02-14T12:49:08Z</time>
      </trkpt>
      <trkpt lat="49.930840" lon="8.053020">
        <time>2010-02-14T12:49:16Z</time>
      </trkpt>
      <trkpt lat="49.930810" lon="8.053060">
        <time>2010-02-14T12:49:20Z</time>
      </trkpt>
      <trkpt lat="49.930710" lon="8.053250">
        <time>2010-02-14T12:49:34Z</time>
      </trkpt>
      <trkpt lat="49.930680" lon="8.053320">
        <time>2010-02-14T12:49:36Z</time>
      </trkpt>
      <trkpt lat="49.930550" lon="8.053570">
        <time>2010-02-14T12:49:48Z</time>
      </trkpt>
      <trkpt lat="49.930460" lon="8.053770">
        <time>2010-02-14T12:50:00Z</time>
      </trkpt>
      <trkpt lat="49.930310" lon="8.054050">
        <time>2010-02-14T12:50:16Z</time>
      </trkpt>
      <trkpt lat="49.930260" lon="8.054150">
        <time>2010-02-14T12:50:26Z</time>
      </trkpt>
      <trkpt lat="49.930230" lon="8.054220">
        <time>2010-02-14T12:50:28Z</time>
      </trkpt>
      <trkpt lat="49.930120" lon="8.054410">
        <time>2010-02-14T12:50:38Z</time>
      </trkpt>
      <trkpt lat="49.930000" lon="8.054650">
        <time>2010-02-14T12:50:52Z</time>
      </trkpt>
      <trkpt lat="49.929790" lon="8.055010">
        <time>2010-02-14T12:51:18Z</time>
      </trkpt>
      <trkpt lat="49.929670" lon="8.055140">
        <time>2010-02-14T12:51:32Z</time>
      </trkpt>
      <trkpt lat="49.929230" lon="8.055590">
        <time>2010-02-14T12:52:18Z</time>
      </trkpt>
      <trkpt lat="49.928880" lon="8.055930">
        <time>2010-02-14T12:53:00Z</time>
      </trkpt>
      <trkpt lat="49.928820" lon="8.056020">
        <time>2010-02-14T12:53:04Z</time>
      </trkpt>
      <trkpt lat="49.928710" lon="8.056130">
        <time>2010-02-14T12:53:14Z</time>
      </trkpt>
      <trkpt lat="49.928660" lon="8.056240">
        <time>2010-02-14T12:53:24Z</time>
      </trkpt>
      <trkpt lat="49.928550" lon="8.056390">
        <time>2010-02-14T12:53:40Z</time>
      </trkpt>
      <trkpt lat="49.928340" lon="8.056660">
        <time>2010-02-14T12:54:04Z</time>
      </trkpt>
      <trkpt lat="49.928310" lon="8.056710">
        <time>2010-02-14T12:54:06Z</time>
      </trkpt>
      <trkpt lat="49.928180" lon="8.056960">
        <time>2010-02-14T12:54:14Z</time>
      </trkpt>
      <trkpt lat="49.928070" lon="8.057140">
        <time>2010-02-14T12:54:24Z</time>
      </trkpt>
      <trkpt lat="49.927960" lon="8.057240">
        <time>2010-02-14T12:54:34Z</time>
      </trkpt>
      <trkpt lat="49.927700" lon="8.057500">
        <time>2010-02-14T12:55:02Z</time>
      </trkpt>
      <trkpt lat="49.927650" lon="8.057500">
        <time>2010-02-14T12:55:06Z</time>
      </trkpt>
      <trkpt lat="49.927480" lon="8.057500">
        <time>2010-02-14T12:55:24Z</time>
      </trkpt>
      <trkpt lat="49.927340" lon="8.057480">
        <time>2010-02-14T12:55:34Z</time>
      </trkpt>
      <trkpt lat="49.927280" lon="8.057440">
        <time>2010-02-14T12:55:40Z</time>
      </trkpt>
      <trkpt lat="49.927260" lon="8.057350">
        <time>2010-02-14T12:55:46Z</time>
      </trkpt>
      <trkpt lat="49.927200" lon="8.057290">
        <time>2010-02-14T12:55:52Z</time>
      </trkpt>
      <trkpt lat="49.927130" lon="8.057240">
        <time>2010-02-14T12:56:00Z</time>
      </trkpt>
      <trkpt lat="49.927010" lon="8.057180">
        <time>2010-02-14T12:56:08Z</time>
      </trkpt>
      <trkpt lat="49.926810" lon="8.057070">
        <time>2010-02-14T12:56:24Z</time>
      </trkpt>
      <trkpt lat="49.926660" lon="8.057010">
        <time>2010-02-14T12:56:38Z</time>
      </trkpt>
      <trkpt lat="49.926430" lon="8.056940">
        <time>2010-02-14T12:57:00Z</time>
      </trkpt>
      <trkpt lat="49.926320" lon="8.056940">
        <time>2010-02-14T12:57:10Z</time>
      </trkpt>
      <trkpt lat="49.926140" lon="8.056990">
        <time>2010-02-14T12:57:26Z</time>
      </trkpt>
      <trkpt lat="49.925640" lon="8.057070">
        <time>2010-02-14T12:58:10Z</time>
      </trkpt>
      <trkpt lat="49.925450" lon="8.057070">
        <time>2010-02-14T12:58:24Z</time>
      </trkpt>
      <trkpt lat="49.925310" lon="8.057030">
        <time>2010-02-14T12:58:36Z</time>
      </trkpt>
      <trkpt lat="49.925220" lon="8.057030">
        <time>2010-02-14T12:58:44Z</time>
      </trkpt>
      <trkpt lat="49.925130" lon="8.057070">
        <time>2010-02-14T12:58:54Z</time>
      </trkpt>
      <trkpt lat="49.925020" lon="8.057110">
        <time>2010-02-14T12:59:10Z</time>
      </trkpt>
      <trkpt lat="49.924940" lon="8.057110">
        <time>2010-02-14T12:59:14Z</time>
      </trkpt>
      <trkpt lat="49.924860" lon="8.057160">
        <time>2010-02-14T12:59:22Z</time>
      </trkpt>
      <trkpt lat="49.924770" lon="8.057180">
        <time>2010-02-14T12:59:30Z</time>
      </trkpt>
      <trkpt lat="49.924640" lon="8.057240">
        <time>2010-02-14T12:59:40Z</time>
      </trkpt>
      <trkpt lat="49.924460" lon="8.057330">
        <time>2010-02-14T12:59:56Z</time>
      </trkpt>
      <trkpt lat="49.924390" lon="8.057330">
        <time>2010-02-14T13:00:02Z</time>
      </trkpt>
      <trkpt lat="49.924280" lon="8.057370">
        <time>2010-02-14T13:00:10Z</time>
      </trkpt>
      <trkpt lat="49.924210" lon="8.057370">
        <time>2010-02-14T13:00:18Z</time>
      </trkpt>
      <trkpt lat="49.923950" lon="8.057350">
        <time>2010-02-14T13:00:42Z</time>
      </trkpt>
      <trkpt lat="49.923800" lon="8.057370">
        <time>2010-02-14T13:00:56Z</time>
      </trkpt>
      <trkpt lat="49.923650" lon="8.057390">
        <time>2010-02-14T13:01:12Z</time>
      </trkpt>
      <trkpt lat="49.923430" lon="8.057460">
        <time>2010-02-14T13:01:34Z</time>
      </trkpt>
      <trkpt lat="49.923330" lon="8.057480">
        <time>2010-02-14T13:01:40Z</time>
      </trkpt>
      <trkpt lat="49.923230" lon="8.057540">
        <time>2010-02-14T13:01:46Z</time>
      </trkpt>
      <trkpt lat="49.923130" lon="8.057590">
        <time>2010-02-14T13:01:56Z</time>
      </trkpt>
      <trkpt lat="49.922920" lon="8.057630">
        <time>2010-02-14T13:02:12Z</time>
      </trkpt>
      <trkpt lat="49.922510" lon="8.057690">
        <time>2010-02-14T13:02:40Z</time>
      </trkpt>
      <trkpt lat="49.922010" lon="8.057740">
        <time>2010-02-14T13:03:18Z</time>
      </trkpt>
      <trkpt lat="49.921920" lon="8.057740">
        <time>2010-02-14T13:03:28Z</time>
      </trkpt>
      <trkpt lat="49.921830" lon="8.057780">
        <time>2010-02-14T13:03:34Z</time>
      </trkpt>
      <trkpt lat="49.921610" lon="8.057870">
        <time>2010-02-14T13:03:50Z</time>
      </trkpt>
      <trkpt lat="49.921530" lon="8.057890">
        <time>2010-02-14T13:04:00Z</time>
      </trkpt>
      <trkpt lat="49.921410" lon="8.057890">
        <time>2010-02-14T13:04:14Z</time>
      </trkpt>
      <trkpt lat="49.921280" lon="8.057910">
        <time>2010-02-14T13:04:26Z</time>
      </trkpt>
      <trkpt lat="49.921090" lon="8.057910">
        <time>2010-02-14T13:04:40Z</time>
      </trkpt>
      <trkpt lat="49.920900" lon="8.057930">
        <time>2010-02-14T13:04:56Z</time>
      </trkpt>
      <trkpt lat="49.920810" lon="8.057970">
        <time>2010-02-14T13:05:04Z</time>
      </trkpt>
      <trkpt lat="49.920640" lon="8.058020">
        <time>2010-02-14T13:05:16Z</time>
      </trkpt>
      <trkpt lat="49.920640" lon="8.058020">
        <time>2010-02-14T13:05:20Z</time>
      </trkpt>
      <trkpt lat="49.920590" lon="8.058040">
        <time>2010-02-14T13:05:22Z</time>
      </trkpt>
      <trkpt lat="49.920520" lon="8.058040">
        <time>2010-02-14T13:05:28Z</time>
      </trkpt>
      <trkpt lat="49.920170" lon="8.058080">
        <time>2010-02-14T13:05:52Z</time>
      </trkpt>
      <trkpt lat="49.920000" lon="8.058140">
        <time>2010-02-14T13:06:06Z</time>
      </trkpt>
      <trkpt lat="49.918990" lon="8.058490">
        <time>2010-02-14T13:07:34Z</time>
      </trkpt>
      <trkpt lat="49.918830" lon="8.058530">
        <time>2010-02-14T13:07:50Z</time>
      </trkpt>
      <trkpt lat="49.918700" lon="8.058600">
        <time>2010-02-14T13:08:08Z</time>
      </trkpt>
      <trkpt lat="49.918700" lon="8.058600">
        <time>2010-02-14T13:08:12Z</time>
      </trkpt>
      <trkpt lat="49.918630" lon="8.058810">
        <time>2010-02-14T13:08:18Z</time>
      </trkpt>
      <trkpt lat="49.918630" lon="8.058850">
        <time>2010-02-14T13:08:24Z</time>
      </trkpt>
      <trkpt lat="49.918630" lon="8.058850">
        <time>2010-02-14T13:08:30Z</time>
      </trkpt>
      <trkpt lat="49.918630" lon="8.058850">
        <time>2010-02-14T13:08:32Z</time>
      </trkpt>
      <trkpt lat="49.918660" lon="8.059070">
        <time>2010-02-14T13:08:36Z</time>
      </trkpt>
      <trkpt lat="49.918700" lon="8.059320">
        <time>2010-02-14T13:08:48Z</time>
      </trkpt>
      <trkpt lat="49.918700" lon="8.059320">
        <time>2010-02-14T13:08:50Z</time>
      </trkpt>
      <trkpt lat="49.918730" lon="8.059410">
        <time>2010-02-14T13:08:52Z</time>
      </trkpt>
      <trkpt lat="49.918780" lon="8.059600">
        <time>2010-02-14T13:09:06Z</time>
      </trkpt>
      <trkpt lat="49.918790" lon="8.059670">
        <time>2010-02-14T13:09:08Z</time>
      </trkpt>
      <trkpt lat="49.918800" lon="8.060010">
        <time>2010-02-14T13:09:22Z</time>
      </trkpt>
      <trkpt lat="49.918800" lon="8.060140">
        <time>2010-02-14T13:09:32Z</time>
      </trkpt>
      <trkpt lat="49.918810" lon="8.060200">
        <time>2010-02-14T13:09:34Z</time>
      </trkpt>
      <trkpt lat="49.918820" lon="8.060400">
        <time>2010-02-14T13:09:44Z</time>
      </trkpt>
      <trkpt lat="49.918930" lon="8.061430">
        <time>2010-02-14T13:10:36Z</time>
      </trkpt>
      <trkpt lat="49.918970" lon="8.061640">
        <time>2010-02-14T13:10:50Z</time>
      </trkpt>
      <trkpt lat="49.918980" lon="8.061730">
        <time>2010-02-14T13:11:00Z</time>
      </trkpt>
      <trkpt lat="49.918980" lon="8.061730">
        <time>2010-02-14T13:11:02Z</time>
      </trkpt>
      <trkpt lat="49.918980" lon="8.061730">
        <time>2010-02-14T13:11:04Z</time>
      </trkpt>
      <trkpt lat="49.918980" lon="8.061730">
        <time>2010-02-14T13:11:10Z</time>
      </trkpt>
      <trkpt lat="49.919010" lon="8.061960">
        <time>2010-02-14T13:11:14Z</time>
      </trkpt>
      <trkpt lat="49.919010" lon="8.062140">
        <time>2010-02-14T13:11:18Z</time>
      </trkpt>
      <trkpt lat="49.919020" lon="8.062260">
        <time>2010-02-14T13:11:26Z</time>
      </trkpt>
      <trkpt lat="49.919060" lon="8.062540">
        <time>2010-02-14T13:11:42Z</time>
      </trkpt>
      <trkpt lat="49.919070" lon="8.062780">
        <time>2010-02-14T13:11:58Z</time>
      </trkpt>
      <trkpt lat="49.919080" lon="8.063060">
        <time>2010-02-14T13:12:14Z</time>
      </trkpt>
      <trkpt lat="49.919160" lon="8.063530">
        <time>2010-02-14T13:12:40Z</time>
      </trkpt>
      <trkpt lat="49.919190" lon="8.063750">
        <time>2010-02-14T13:12:54Z</time>
      </trkpt>
      <trkpt lat="49.919220" lon="8.064000">
        <time>2010-02-14T13:13:08Z</time>
      </trkpt>
      <trkpt lat="49.919250" lon="8.064240">
        <time>2010-02-14T13:13:24Z</time>
      </trkpt>
      <trkpt lat="49.919250" lon="8.064240">
        <time>2010-02-14T13:13:26Z</time>
      </trkpt>
      <trkpt lat="49.919250" lon="8.064240">
        <time>2010-02-14T13:13:28Z</time>
      </trkpt>
      <trkpt lat="49.919250" lon="8.064240">
        <time>2010-02-14T13:13:30Z</time>
      </trkpt>
      <trkpt lat="49.919260" lon="8.064390">
        <time>2010-02-14T13:13:34Z</time>
      </trkpt>
      <trkpt lat="49.919260" lon="8.064520">
        <time>2010-02-14T13:13:38Z</time>
      </trkpt>
      <trkpt lat="49.919300" lon="8.064820">
        <time>2010-02-14T13:13:52Z</time>
      </trkpt>
      <trkpt lat="49.919390" lon="8.065270">
        <time>2010-02-14T13:14:14Z</time>
      </trkpt>
      <trkpt lat="49.919410" lon="8.065440">
        <time>2010-02-14T13:14:26Z</time>
      </trkpt>
      <trkpt lat="49.919410" lon="8.065440">
        <time>2010-02-14T13:14:28Z</time>
      </trkpt>
      <trkpt lat="49.919410" lon="8.065440">
        <time>2010-02-14T13:14:30Z</time>
      </trkpt>
      <trkpt lat="49.919410" lon="8.065440">
        <time>2010-02-14T13:14:32Z</time>
      </trkpt>
      <trkpt lat="49.919420" lon="8.065570">
        <time>2010-02-14T13:14:36Z</time>
      </trkpt>
      <trkpt lat="49.919430" lon="8.065680">
        <time>2010-02-14T13:14:42Z</time>
      </trkpt>
      <trkpt lat="49.919470" lon="8.065930">
        <time>2010-02-14T13:14:56Z</time>
      </trkpt>
      <trkpt lat="49.919520" lon="8.066260">
        <time>2010-02-14T13:15:12Z</time>
      </trkpt>
      <trkpt lat="49.919560" lon="8.066600">
        <time>2010-02-14T13:15:26Z</time>
      </trkpt>
      <trkpt lat="49.919580" lon="8.066840">
        <time>2010-02-14T13:15:40Z</time>
      </trkpt>
      <trkpt lat="49.919580" lon="8.066840">
        <time>2010-02-14T13:15:42Z</time>
      </trkpt>
      <trkpt lat="49.919580" lon="8.066840">
        <time>2010-02-14T13:15:44Z</time>
      </trkpt>
      <trkpt lat="49.919580" lon="8.066840">
        <time>2010-02-14T13:15:54Z</time>
      </trkpt>
      <trkpt lat="49.919610" lon="8.066990">
        <time>2010-02-14T13:15:58Z</time>
      </trkpt>
      <trkpt lat="49.919630" lon="8.067090">
        <time>2010-02-14T13:16:02Z</time>
      </trkpt>
      <trkpt lat="49.919700" lon="8.067260">
        <time>2010-02-14T13:16:14Z</time>
      </trkpt>
      <trkpt lat="49.919760" lon="8.067290">
        <time>2010-02-14T13:16:18Z</time>
      </trkpt>
      <trkpt lat="49.919830" lon="8.067290">
        <time>2010-02-14T13:16:24Z</time>
      </trkpt>
      <trkpt lat="49.919930" lon="8.067240">
        <time>2010-02-14T13:16:32Z</time>
      </trkpt>
      <trkpt lat="49.920050" lon="8.067180">
        <time>2010-02-14T13:16:36Z</time>
      </trkpt>
      <trkpt lat="49.920120" lon="8.067140">
        <time>2010-02-14T13:16:44Z</time>
      </trkpt>
      <trkpt lat="49.920170" lon="8.067110">
        <time>2010-02-14T13:16:54Z</time>
      </trkpt>
      <trkpt lat="49.920230" lon="8.067090">
        <time>2010-02-14T13:16:56Z</time>
      </trkpt>
      <trkpt lat="49.920310" lon="8.067090">
        <time>2010-02-14T13:17:02Z</time>
      </trkpt>
      <trkpt lat="49.920400" lon="8.067050">
        <time>2010-02-14T13:17:08Z</time>
      </trkpt>
      <trkpt lat="49.920500" lon="8.067030">
        <time>2010-02-14T13:17:18Z</time>
      </trkpt>
      <trkpt lat="49.920500" lon="8.067030">
        <time>2010-02-14T13:17:22Z</time>
      </trkpt>
      <trkpt lat="49.920580" lon="8.067010">
        <time>2010-02-14T13:17:26Z</time>
      </trkpt>
      <trkpt lat="49.920660" lon="8.066940">
        <time>2010-02-14T13:17:34Z</time>
      </trkpt>
      <trkpt lat="49.920790" lon="8.066880">
        <time>2010-02-14T13:17:46Z</time>
      </trkpt>
      <trkpt lat="49.920940" lon="8.066840">
        <time>2010-02-14T13:17:58Z</time>
      </trkpt>
      <trkpt lat="49.921090" lon="8.066810">
        <time>2010-02-14T13:18:12Z</time>
      </trkpt>
      <trkpt lat="49.921280" lon="8.066770">
        <time>2010-02-14T13:18:28Z</time>
      </trkpt>
      <trkpt lat="49.921780" lon="8.066640">
        <time>2010-02-14T13:19:06Z</time>
      </trkpt>
      <trkpt lat="49.921840" lon="8.066640">
        <time>2010-02-14T13:19:08Z</time>
      </trkpt>
      <trkpt lat="49.921970" lon="8.066660">
        <time>2010-02-14T13:19:18Z</time>
      </trkpt>
      <trkpt lat="49.922150" lon="8.066710">
        <time>2010-02-14T13:19:34Z</time>
      </trkpt>
      <trkpt lat="49.922300" lon="8.066710">
        <time>2010-02-14T13:19:42Z</time>
      </trkpt>
      <trkpt lat="49.922460" lon="8.066730">
        <time>2010-02-14T13:19:54Z</time>
      </trkpt>
      <trkpt lat="49.922690" lon="8.066730">
        <time>2010-02-14T13:20:10Z</time>
      </trkpt>
      <trkpt lat="49.922770" lon="8.066750">
        <time>2010-02-14T13:20:20Z</time>
      </trkpt>
      <trkpt lat="49.922910" lon="8.066770">
        <time>2010-02-14T13:20:32Z</time>
      </trkpt>
      <trkpt lat="49.922960" lon="8.066770">
        <time>2010-02-14T13:20:34Z</time>
      </trkpt>
      <trkpt lat="49.923080" lon="8.066770">
        <time>2010-02-14T13:20:44Z</time>
      </trkpt>
      <trkpt lat="49.923170" lon="8.066790">
        <time>2010-02-14T13:20:56Z</time>
      </trkpt>
      <trkpt lat="49.923250" lon="8.066790">
        <time>2010-02-14T13:21:04Z</time>
      </trkpt>
      <trkpt lat="49.923430" lon="8.066810">
        <time>2010-02-14T13:21:16Z</time>
      </trkpt>
      <trkpt lat="49.923510" lon="8.066810">
        <time>2010-02-14T13:21:26Z</time>
      </trkpt>
      <trkpt lat="49.923540" lon="8.066810">
        <time>2010-02-14T13:21:28Z</time>
      </trkpt>
      <trkpt lat="49.923890" lon="8.066810">
        <time>2010-02-14T13:21:52Z</time>
      </trkpt>
      <trkpt lat="49.924080" lon="8.066810">
        <time>2010-02-14T13:22:08Z</time>
      </trkpt>
      <trkpt lat="49.924220" lon="8.066810">
        <time>2010-02-14T13:22:22Z</time>
      </trkpt>
      <trkpt lat="49.924430" lon="8.066810">
        <time>2010-02-14T13:22:46Z</time>
      </trkpt>
      <trkpt lat="49.924430" lon="8.066810">
        <time>2010-02-14T13:22:50Z</time>
      </trkpt>
      <trkpt lat="49.924600" lon="8.066770">
        <time>2010-02-14T13:22:54Z</time>
      </trkpt>
      <trkpt lat="49.924680" lon="8.066750">
        <time>2010-02-14T13:23:02Z</time>
      </trkpt>
      <trkpt lat="49.924910" lon="8.066730">
        <time>2010-02-14T13:23:22Z</time>
      </trkpt>
      <trkpt lat="49.925080" lon="8.066680">
        <time>2010-02-14T13:23:34Z</time>
      </trkpt>
      <trkpt lat="49.925370" lon="8.066640">
        <time>2010-02-14T13:23:56Z</time>
      </trkpt>
      <trkpt lat="49.925560" lon="8.066640">
        <time>2010-02-14T13:24:10Z</time>
      </trkpt>
      <trkpt lat="49.925750" lon="8.066620">
        <time>2010-02-14T13:24:26Z</time>
      </trkpt>
      <trkpt lat="49.926050" lon="8.066560">
        <time>2010-02-14T13:24:52Z</time>
      </trkpt>
      <trkpt lat="49.926290" lon="8.066530">
        <time>2010-02-14T13:25:12Z</time>
      </trkpt>
      <trkpt lat="49.926290" lon="8.066530">
        <time>2010-02-14T13:25:16Z</time>
      </trkpt>
      <trkpt lat="49.926330" lon="8.066530">
        <time>2010-02-14T13:25:18Z</time>
      </trkpt>
      <trkpt lat="49.926410" lon="8.066530">
        <time>2010-02-14T13:25:26Z</time>
      </trkpt>
      <trkpt lat="49.926720" lon="8.066490">
        <time>2010-02-14T13:25:52Z</time>
      </trkpt>
      <trkpt lat="49.926740" lon="8.066490">
        <time>2010-02-14T13:25:58Z</time>
      </trkpt>
      <trkpt lat="49.926740" lon="8.066490">
        <time>2010-02-14T13:26:06Z</time>
      </trkpt>
      <trkpt lat="49.926740" lon="8.066490">
        <time>2010-02-14T13:26:10Z</time>
      </trkpt>
      <trkpt lat="49.927080" lon="8.066450">
        <time>2010-02-14T13:26:16Z</time>
      </trkpt>
      <trkpt lat="49.927170" lon="8.066450">
        <time>2010-02-14T13:26:22Z</time>
      </trkpt>
      <trkpt lat="49.927500" lon="8.066430">
        <time>2010-02-14T13:26:48Z</time>
      </trkpt>
      <trkpt lat="49.927600" lon="8.066410">
        <time>2010-02-14T13:27:00Z</time>
      </trkpt>
      <trkpt lat="49.927600" lon="8.066410">
        <time>2010-02-14T13:27:04Z</time>
      </trkpt>
      <trkpt lat="49.927760" lon="8.066380">
        <time>2010-02-14T13:27:08Z</time>
      </trkpt>
      <trkpt lat="49.927850" lon="8.066360">
        <time>2010-02-14T13:27:16Z</time>
      </trkpt>
      <trkpt lat="49.927910" lon="8.066360">
        <time>2010-02-14T13:27:26Z</time>
      </trkpt>
      <trkpt lat="49.927990" lon="8.066340">
        <time>2010-02-14T13:27:28Z</time>
      </trkpt>
      <trkpt lat="49.928060" lon="8.066340">
        <time>2010-02-14T13:27:36Z</time>
      </trkpt>
      <trkpt lat="49.928060" lon="8.066340">
        <time>2010-02-14T13:27:40Z</time>
      </trkpt>
      <trkpt lat="49.928160" lon="8.066340">
        <time>2010-02-14T13:27:44Z</time>
      </trkpt>
      <trkpt lat="49.928220" lon="8.066340">
        <time>2010-02-14T13:27:48Z</time>
      </trkpt>
      <trkpt lat="49.928310" lon="8.066320">
        <time>2010-02-14T13:27:56Z</time>
      </trkpt>
      <trkpt lat="49.928690" lon="8.066260">
        <time>2010-02-14T13:28:32Z</time>
      </trkpt>
      <trkpt lat="49.928840" lon="8.066260">
        <time>2010-02-14T13:28:48Z</time>
      </trkpt>
      <trkpt lat="49.928910" lon="8.066260">
        <time>2010-02-14T13:28:52Z</time>
      </trkpt>
      <trkpt lat="49.929040" lon="8.066230">
        <time>2010-02-14T13:29:04Z</time>
      </trkpt>
      <trkpt lat="49.929260" lon="8.066230">
        <time>2010-02-14T13:29:20Z</time>
      </trkpt>
      <trkpt lat="49.929260" lon="8.066230">
        <time>2010-02-14T13:29:24Z</time>
      </trkpt>
      <trkpt lat="49.929320" lon="8.066230">
        <time>2010-02-14T13:29:26Z</time>
      </trkpt>
      <trkpt lat="49.929420" lon="8.066230">
        <time>2010-02-14T13:29:34Z</time>
      </trkpt>
      <trkpt lat="49.929610" lon="8.066210">
        <time>2010-02-14T13:29:48Z</time>
      </trkpt>
      <trkpt lat="49.929820" lon="8.066170">
        <time>2010-02-14T13:30:02Z</time>
      </trkpt>
      <trkpt lat="49.929990" lon="8.066170">
        <time>2010-02-14T13:30:16Z</time>
      </trkpt>
      <trkpt lat="49.930110" lon="8.066170">
        <time>2010-02-14T13:30:30Z</time>
      </trkpt>
      <trkpt lat="49.930170" lon="8.066170">
        <time>2010-02-14T13:30:32Z</time>
      </trkpt>
      <trkpt lat="49.930220" lon="8.066170">
        <time>2010-02-14T13:30:38Z</time>
      </trkpt>
      <trkpt lat="49.930380" lon="8.066130">
        <time>2010-02-14T13:30:50Z</time>
      </trkpt>
      <trkpt lat="49.930580" lon="8.066110">
        <time>2010-02-14T13:31:06Z</time>
      </trkpt>
      <trkpt lat="49.930760" lon="8.066080">
        <time>2010-02-14T13:31:22Z</time>
      </trkpt>
      <trkpt lat="49.930760" lon="8.066080">
        <time>2010-02-14T13:31:26Z</time>
      </trkpt>
      <trkpt lat="49.930760" lon="8.066080">
        <time>2010-02-14T13:31:30Z</time>
      </trkpt>
      <trkpt lat="49.930900" lon="8.066040">
        <time>2010-02-14T13:31:36Z</time>
      </trkpt>
      <trkpt lat="49.930900" lon="8.066040">
        <time>2010-02-14T13:31:44Z</time>
      </trkpt>
      <trkpt lat="49.930900" lon="8.066040">
        <time>2010-02-14T13:31:48Z</time>
      </trkpt>
      <trkpt lat="49.930900" lon="8.066040">
        <time>2010-02-14T13:32:04Z</time>
      </trkpt>
      <trkpt lat="49.931190" lon="8.066060">
        <time>2010-02-14T13:32:10Z</time>
      </trkpt>
      <trkpt lat="49.931420" lon="8.066300">
        <time>2010-02-14T13:32:18Z</time>
      </trkpt>
      <trkpt lat="49.931420" lon="8.066300">
        <time>2010-02-14T13:32:22Z</time>
      </trkpt>
      <trkpt lat="49.931460" lon="8.066490">
        <time>2010-02-14T13:32:26Z</time>
      </trkpt>
      <trkpt lat="49.931440" lon="8.066580">
        <time>2010-02-14T13:32:34Z</time>
      </trkpt>
      <trkpt lat="49.931440" lon="8.066660">
        <time>2010-02-14T13:32:38Z</time>
      </trkpt>
      <trkpt lat="49.931430" lon="8.066710">
        <time>2010-02-14T13:32:46Z</time>
      </trkpt>
      <trkpt lat="49.931430" lon="8.066710">
        <time>2010-02-14T13:32:50Z</time>
      </trkpt>
      <trkpt lat="49.931440" lon="8.067010">
        <time>2010-02-14T13:32:54Z</time>
      </trkpt>
      <trkpt lat="49.931440" lon="8.067220">
        <time>2010-02-14T13:33:04Z</time>
      </trkpt>
      <trkpt lat="49.931450" lon="8.067260">
        <time>2010-02-14T13:33:10Z</time>
      </trkpt>
      <trkpt lat="49.931460" lon="8.067330">
        <time>2010-02-14T13:33:12Z</time>
      </trkpt>
      <trkpt lat="49.931480" lon="8.067410">
        <time>2010-02-14T13:33:16Z</time>
      </trkpt>
      <trkpt lat="49.931630" lon="8.067710">
        <time>2010-02-14T13:33:28Z</time>
      </trkpt>
      <trkpt lat="49.931690" lon="8.067890">
        <time>2010-02-14T13:33:38Z</time>
      </trkpt>
      <trkpt lat="49.931730" lon="8.068100">
        <time>2010-02-14T13:33:52Z</time>
      </trkpt>
      <trkpt lat="49.931750" lon="8.068170">
        <time>2010-02-14T13:33:54Z</time>
      </trkpt>
      <trkpt lat="49.931790" lon="8.068320">
        <time>2010-02-14T13:34:04Z</time>
      </trkpt>
      <trkpt lat="49.931820" lon="8.068440">
        <time>2010-02-14T13:34:16Z</time>
      </trkpt>
      <trkpt lat="49.931850" lon="8.068550">
        <time>2010-02-14T13:34:18Z</time>
      </trkpt>
      <trkpt lat="49.931860" lon="8.068640">
        <time>2010-02-14T13:34:24Z</time>
      </trkpt>
      <trkpt lat="49.931870" lon="8.068790">
        <time>2010-02-14T13:34:34Z</time>
      </trkpt>
      <trkpt lat="49.931920" lon="8.068920">
        <time>2010-02-14T13:34:44Z</time>
      </trkpt>
      <trkpt lat="49.931920" lon="8.068920">
        <time>2010-02-14T13:34:46Z</time>
      </trkpt>
      <trkpt lat="49.931960" lon="8.068960">
        <time>2010-02-14T13:34:48Z</time>
      </trkpt>
      <trkpt lat="49.932040" lon="8.068980">
        <time>2010-02-14T13:34:58Z</time>
      </trkpt>
      <trkpt lat="49.932160" lon="8.068980">
        <time>2010-02-14T13:35:10Z</time>
      </trkpt>
      <trkpt lat="49.932200" lon="8.069000">
        <time>2010-02-14T13:35:20Z</time>
      </trkpt>
      <trkpt lat="49.932220" lon="8.069020">
        <time>2010-02-14T13:35:22Z</time>
      </trkpt>
      <trkpt lat="49.932220" lon="8.069020">
        <time>2010-02-14T13:35:30Z</time>
      </trkpt>
      <trkpt lat="49.932270" lon="8.069050">
        <time>2010-02-14T13:35:32Z</time>
      </trkpt>
      <trkpt lat="49.932290" lon="8.069070">
        <time>2010-02-14T13:35:36Z</time>
      </trkpt>
      <trkpt lat="49.932360" lon="8.069090">
        <time>2010-02-14T13:35:44Z</time>
      </trkpt>
      <trkpt lat="49.932440" lon="8.069150">
        <time>2010-02-14T13:35:52Z</time>
      </trkpt>
      <trkpt lat="49.932500" lon="8.069350">
        <time>2010-02-14T13:36:02Z</time>
      </trkpt>
      <trkpt lat="49.932500" lon="8.069350">
        <time>2010-02-14T13:36:04Z</time>
      </trkpt>
      <trkpt lat="49.932500" lon="8.069350">
        <time>2010-02-14T13:36:06Z</time>
      </trkpt>
      <trkpt lat="49.932530" lon="8.069410">
        <time>2010-02-14T13:36:08Z</time>
      </trkpt>
      <trkpt lat="49.932600" lon="8.069430">
        <time>2010-02-14T13:36:16Z</time>
      </trkpt>
      <trkpt lat="49.932680" lon="8.069450">
        <time>2010-02-14T13:36:28Z</time>
      </trkpt>
      <trkpt lat="49.932680" lon="8.069450">
        <time>2010-02-14T13:36:32Z</time>
      </trkpt>
      <trkpt lat="49.932680" lon="8.069450">
        <time>2010-02-14T13:36:36Z</time>
      </trkpt>
      <trkpt lat="49.932680" lon="8.069450">
        <time>2010-02-14T13:36:40Z</time>
      </trkpt>
      <trkpt lat="49.932870" lon="8.069320">
        <time>2010-02-14T13:36:46Z</time>
      </trkpt>
      <trkpt lat="49.932880" lon="8.069300">
        <time>2010-02-14T13:36:52Z</time>
      </trkpt>
      <trkpt lat="49.932930" lon="8.069220">
        <time>2010-02-14T13:36:56Z</time>
      </trkpt>
      <trkpt lat="49.932950" lon="8.069170">
        <time>2010-02-14T13:36:58Z</time>
      </trkpt>
      <trkpt lat="49.933010" lon="8.069070">
        <time>2010-02-14T13:37:08Z</time>
      </trkpt>
      <trkpt lat="49.933010" lon="8.069070">
        <time>2010-02-14T13:37:12Z</time>
      </trkpt>
      <trkpt lat="49.933060" lon="8.069020">
        <time>2010-02-14T13:37:14Z</time>
      </trkpt>
      <trkpt lat="49.933140" lon="8.068940">
        <time>2010-02-14T13:37:28Z</time>
      </trkpt>
      <trkpt lat="49.933140" lon="8.068940">
        <time>2010-02-14T13:37:32Z</time>
      </trkpt>
      <trkpt lat="49.933170" lon="8.068850">
        <time>2010-02-14T13:37:34Z</time>
      </trkpt>
      <trkpt lat="49.933200" lon="8.068700">
        <time>2010-02-14T13:37:42Z</time>
      </trkpt>
      <trkpt lat="49.933200" lon="8.068680">
        <time>2010-02-14T13:37:46Z</time>
      </trkpt>
      <trkpt lat="49.933230" lon="8.068570">
        <time>2010-02-14T13:37:50Z</time>
      </trkpt>
      <trkpt lat="49.933260" lon="8.068510">
        <time>2010-02-14T13:38:00Z</time>
      </trkpt>
      <trkpt lat="49.933260" lon="8.068510">
        <time>2010-02-14T13:38:04Z</time>
      </trkpt>
      <trkpt lat="49.933260" lon="8.068510">
        <time>2010-02-14T13:38:08Z</time>
      </trkpt>
      <trkpt lat="49.933260" lon="8.068510">
        <time>2010-02-14T13:38:20Z</time>
      </trkpt>
      <trkpt lat="49.933490" lon="8.068250">
        <time>2010-02-14T13:38:26Z</time>
      </trkpt>
      <trkpt lat="49.933490" lon="8.068250">
        <time>2010-02-14T13:38:34Z</time>
      </trkpt>
      <trkpt lat="49.933580" lon="8.068140">
        <time>2010-02-14T13:38:38Z</time>
      </trkpt>
      <trkpt lat="49.933580" lon="8.068140">
        <time>2010-02-14T13:38:46Z</time>
      </trkpt>
      <trkpt lat="49.933580" lon="8.068140">
        <time>2010-02-14T13:38:50Z</time>
      </trkpt>
      <trkpt lat="49.933580" lon="8.068140">
        <time>2010-02-14T13:38:56Z</time>
      </trkpt>
      <trkpt lat="49.933740" lon="8.067800">
        <time>2010-02-14T13:39:02Z</time>
      </trkpt>
      <trkpt lat="49.933740" lon="8.067800">
        <time>2010-02-14T13:39:10Z</time>
      </trkpt>
      <trkpt lat="49.933740" lon="8.067800">
        <time>2010-02-14T13:39:14Z</time>
      </trkpt>
      <trkpt lat="49.933740" lon="8.067800">
        <time>2010-02-14T13:39:22Z</time>
      </trkpt>
      <trkpt lat="49.933970" lon="8.067590">
        <time>2010-02-14T13:39:28Z</time>
      </trkpt>
      <trkpt lat="49.933970" lon="8.067590">
        <time>2010-02-14T13:39:36Z</time>
      </trkpt>
      <trkpt lat="49.933970" lon="8.067590">
        <time>2010-02-14T13:39:40Z</time>
      </trkpt>
      <trkpt lat="49.934180" lon="8.067290">
        <time>2010-02-14T13:39:46Z</time>
      </trkpt>
      <trkpt lat="49.934180" lon="8.067290">
        <time>2010-02-14T13:39:54Z</time>
      </trkpt>
      <trkpt lat="49.934180" lon="8.067290">
        <time>2010-02-14T13:39:58Z</time>
      </trkpt>
      <trkpt lat="49.934270" lon="8.067110">
        <time>2010-02-14T13:40:02Z</time>
      </trkpt>
      <trkpt lat="49.934350" lon="8.067030">
        <time>2010-02-14T13:40:12Z</time>
      </trkpt>
      <trkpt lat="49.934350" lon="8.067030">
        <time>2010-02-14T13:40:16Z</time>
      </trkpt>
      <trkpt lat="49.934440" lon="8.066880">
        <time>2010-02-14T13:40:20Z</time>
      </trkpt>
      <trkpt lat="49.934480" lon="8.066840">
        <time>2010-02-14T13:40:28Z</time>
      </trkpt>
      <trkpt lat="49.934480" lon="8.066840">
        <time>2010-02-14T13:40:32Z</time>
      </trkpt>
      <trkpt lat="49.934480" lon="8.066840">
        <time>2010-02-14T13:40:36Z</time>
      </trkpt>
      <trkpt lat="49.934480" lon="8.066840">
        <time>2010-02-14T13:40:48Z</time>
      </trkpt>
      <trkpt lat="49.934670" lon="8.066530">
        <time>2010-02-14T13:40:54Z</time>
      </trkpt>
      <trkpt lat="49.934830" lon="8.066300">
        <time>2010-02-14T13:41:06Z</time>
      </trkpt>
      <trkpt lat="49.934830" lon="8.066300">
        <time>2010-02-14T13:41:10Z</time>
      </trkpt>
      <trkpt lat="49.934830" lon="8.066300">
        <time>2010-02-14T13:41:16Z</time>
      </trkpt>
      <trkpt lat="49.934830" lon="8.066300">
        <time>2010-02-14T13:41:28Z</time>
      </trkpt>
      <trkpt lat="49.934920" lon="8.065910">
        <time>2010-02-14T13:41:34Z</time>
      </trkpt>
      <trkpt lat="49.935020" lon="8.065810">
        <time>2010-02-14T13:41:40Z</time>
      </trkpt>
      <trkpt lat="49.935020" lon="8.065810">
        <time>2010-02-14T13:41:48Z</time>
      </trkpt>
      <trkpt lat="49.935160" lon="8.065810">
        <time>2010-02-14T13:41:54Z</time>
      </trkpt>
      <trkpt lat="49.935160" lon="8.065810">
        <time>2010-02-14T13:42:02Z</time>
      </trkpt>
      <trkpt lat="49.935160" lon="8.065810">
        <time>2010-02-14T13:42:06Z</time>
      </trkpt>
      <trkpt lat="49.935160" lon="8.065810">
        <time>2010-02-14T13:42:10Z</time>
      </trkpt>
      <trkpt lat="49.935390" lon="8.065570">
        <time>2010-02-14T13:42:18Z</time>
      </trkpt>
      <trkpt lat="49.935450" lon="8.065440">
        <time>2010-02-14T13:42:20Z</time>
      </trkpt>
      <trkpt lat="49.935450" lon="8.065440">
        <time>2010-02-14T13:42:28Z</time>
      </trkpt>
      <trkpt lat="49.935450" lon="8.065440">
        <time>2010-02-14T13:42:32Z</time>
      </trkpt>
      <trkpt lat="49.935450" lon="8.065440">
        <time>2010-02-14T13:42:44Z</time>
      </trkpt>
      <trkpt lat="49.935640" lon="8.065100">
        <time>2010-02-14T13:42:50Z</time>
      </trkpt>
      <trkpt lat="49.935640" lon="8.065100">
        <time>2010-02-14T13:42:58Z</time>
      </trkpt>
      <trkpt lat="49.935640" lon="8.065100">
        <time>2010-02-14T13:43:02Z</time>
      </trkpt>
      <trkpt lat="49.935640" lon="8.065100">
        <time>2010-02-14T13:43:06Z</time>
      </trkpt>
      <trkpt lat="49.935800" lon="8.064820">
        <time>2010-02-14T13:43:10Z</time>
      </trkpt>
      <trkpt lat="49.935820" lon="8.064650">
        <time>2010-02-14T13:43:18Z</time>
      </trkpt>
      <trkpt lat="49.935810" lon="8.064500">
        <time>2010-02-14T13:43:30Z</time>
      </trkpt>
      <trkpt lat="49.935810" lon="8.064500">
        <time>2010-02-14T13:43:34Z</time>
      </trkpt>
      <trkpt lat="49.935810" lon="8.064500">
        <time>2010-02-14T13:43:38Z</time>
      </trkpt>
      <trkpt lat="49.935850" lon="8.064240">
        <time>2010-02-14T13:43:42Z</time>
      </trkpt>
      <trkpt lat="49.935850" lon="8.064240">
        <time>2010-02-14T13:43:50Z</time>
      </trkpt>
      <trkpt lat="49.935850" lon="8.064240">
        <time>2010-02-14T13:43:54Z</time>
      </trkpt>
      <trkpt lat="49.935850" lon="8.064240">
        <time>2010-02-14T13:44:06Z</time>
      </trkpt>
      <trkpt lat="49.936040" lon="8.063920">
        <time>2010-02-14T13:44:12Z</time>
      </trkpt>
      <trkpt lat="49.936170" lon="8.063660">
        <time>2010-02-14T13:44:24Z</time>
      </trkpt>
      <trkpt lat="49.936210" lon="8.063570">
        <time>2010-02-14T13:44:32Z</time>
      </trkpt>
      <trkpt lat="49.936210" lon="8.063570">
        <time>2010-02-14T13:44:36Z</time>
      </trkpt>
      <trkpt lat="49.936320" lon="8.063490">
        <time>2010-02-14T13:44:40Z</time>
      </trkpt>
      <trkpt lat="49.936410" lon="8.063400">
        <time>2010-02-14T13:44:52Z</time>
      </trkpt>
      <trkpt lat="49.936410" lon="8.063400">
        <time>2010-02-14T13:44:56Z</time>
      </trkpt>
      <trkpt lat="49.936410" lon="8.063400">
        <time>2010-02-14T13:45:00Z</time>
      </trkpt>
      <trkpt lat="49.936490" lon="8.063340">
        <time>2010-02-14T13:45:04Z</time>
      </trkpt>
      <trkpt lat="49.936490" lon="8.063340">
        <time>2010-02-14T13:45:12Z</time>
      </trkpt>
      <trkpt lat="49.936490" lon="8.063340">
        <time>2010-02-14T13:45:16Z</time>
      </trkpt>
      <trkpt lat="49.936590" lon="8.063270">
        <time>2010-02-14T13:45:20Z</time>
      </trkpt>
      <trkpt lat="49.936620" lon="8.063250">
        <time>2010-02-14T13:45:28Z</time>
      </trkpt>
      <trkpt lat="49.936620" lon="8.063250">
        <time>2010-02-14T13:45:32Z</time>
      </trkpt>
      <trkpt lat="49.936620" lon="8.063250">
        <time>2010-02-14T13:45:36Z</time>
      </trkpt>
      <trkpt lat="49.936620" lon="8.063250">
        <time>2010-02-14T13:45:44Z</time>
      </trkpt>
      <trkpt lat="49.936750" lon="8.062970">
        <time>2010-02-14T13:45:48Z</time>
      </trkpt>
      <trkpt lat="49.936750" lon="8.062970">
        <time>2010-02-14T13:45:56Z</time>
      </trkpt>
      <trkpt lat="49.936860" lon="8.062820">
        <time>2010-02-14T13:46:00Z</time>
      </trkpt>
      <trkpt lat="49.936860" lon="8.062820">
        <time>2010-02-14T13:46:08Z</time>
      </trkpt>
      <trkpt lat="49.936860" lon="8.062820">
        <time>2010-02-14T13:46:12Z</time>
      </trkpt>
      <trkpt lat="49.936860" lon="8.062820">
        <time>2010-02-14T13:46:16Z</time>
      </trkpt>
      <trkpt lat="49.937040" lon="8.062590">
        <time>2010-02-14T13:46:20Z</time>
      </trkpt>
      <trkpt lat="49.937050" lon="8.062500">
        <time>2010-02-14T13:46:26Z</time>
      </trkpt>
      <trkpt lat="49.937050" lon="8.062460">
        <time>2010-02-14T13:46:30Z</time>
      </trkpt>
      <trkpt lat="49.937040" lon="8.062330">
        <time>2010-02-14T13:46:44Z</time>
      </trkpt>
      <trkpt lat="49.937040" lon="8.062330">
        <time>2010-02-14T13:46:54Z</time>
      </trkpt>
      <trkpt lat="49.937020" lon="8.062310">
        <time>2010-02-14T13:46:58Z</time>
      </trkpt>
      <trkpt lat="49.936910" lon="8.062330">
        <time>2010-02-14T13:47:02Z</time>
      </trkpt>
      <trkpt lat="49.936910" lon="8.062330">
        <time>2010-02-14T13:47:10Z</time>
      </trkpt>
      <trkpt lat="49.936910" lon="8.062330">
        <time>2010-02-14T13:47:14Z</time>
      </trkpt>
      <trkpt lat="49.936910" lon="8.062330">
        <time>2010-02-14T13:47:18Z</time>
      </trkpt>
      <trkpt lat="49.936800" lon="8.062290">
        <time>2010-02-14T13:47:22Z</time>
      </trkpt>
      <trkpt lat="49.936750" lon="8.062240">
        <time>2010-02-14T13:47:30Z</time>
      </trkpt>
      <trkpt lat="49.936700" lon="8.062220">
        <time>2010-02-14T13:47:42Z</time>
      </trkpt>
      <trkpt lat="49.936700" lon="8.062220">
        <time>2010-02-14T13:47:46Z</time>
      </trkpt>
      <trkpt lat="49.936700" lon="8.062220">
        <time>2010-02-14T13:47:50Z</time>
      </trkpt>
      <trkpt lat="49.936700" lon="8.062220">
        <time>2010-02-14T13:47:56Z</time>
      </trkpt>
      <trkpt lat="49.936550" lon="8.062160">
        <time>2010-02-14T13:48:00Z</time>
      </trkpt>
      <trkpt lat="49.936550" lon="8.062160">
        <time>2010-02-14T13:48:08Z</time>
      </trkpt>
      <trkpt lat="49.936550" lon="8.062160">
        <time>2010-02-14T13:48:12Z</time>
      </trkpt>
      <trkpt lat="49.936550" lon="8.062160">
        <time>2010-02-14T13:48:16Z</time>
      </trkpt>
      <trkpt lat="49.936470" lon="8.061790">
        <time>2010-02-14T13:48:22Z</time>
      </trkpt>
      <trkpt lat="49.936510" lon="8.061750">
        <time>2010-02-14T13:48:26Z</time>
      </trkpt>
      <trkpt lat="49.936600" lon="8.061640">
        <time>2010-02-14T13:48:34Z</time>
      </trkpt>
      <trkpt lat="49.936690" lon="8.061540">
        <time>2010-02-14T13:48:46Z</time>
      </trkpt>
      <trkpt lat="49.936750" lon="8.061380">
        <time>2010-02-14T13:48:58Z</time>
      </trkpt>
      <trkpt lat="49.936860" lon="8.061230">
        <time>2010-02-14T13:49:10Z</time>
      </trkpt>
      <trkpt lat="49.937060" lon="8.060930">
        <time>2010-02-14T13:49:36Z</time>
      </trkpt>
      <trkpt lat="49.937230" lon="8.060760">
        <time>2010-02-14T13:49:54Z</time>
      </trkpt>
      <trkpt lat="49.937340" lon="8.060610">
        <time>2010-02-14T13:50:10Z</time>
      </trkpt>
      <trkpt lat="49.937520" lon="8.060290">
        <time>2010-02-14T13:50:38Z</time>
      </trkpt>
      <trkpt lat="49.937590" lon="8.060140">
        <time>2010-02-14T13:50:46Z</time>
      </trkpt>
      <trkpt lat="49.937650" lon="8.059990">
        <time>2010-02-14T13:50:58Z</time>
      </trkpt>
      <trkpt lat="49.937750" lon="8.059800">
        <time>2010-02-14T13:51:12Z</time>
      </trkpt>
      <trkpt lat="49.937870" lon="8.059630">
        <time>2010-02-14T13:51:28Z</time>
      </trkpt>
      <trkpt lat="49.937950" lon="8.059560">
        <time>2010-02-14T13:51:38Z</time>
      </trkpt>
      <trkpt lat="49.938070" lon="8.059410">
        <time>2010-02-14T13:51:52Z</time>
      </trkpt>
      <trkpt lat="49.938340" lon="8.059130">
        <time>2010-02-14T13:52:20Z</time>
      </trkpt>
      <trkpt lat="49.938510" lon="8.058980">
        <time>2010-02-14T13:52:34Z</time>
      </trkpt>
      <trkpt lat="49.938700" lon="8.058790">
        <time>2010-02-14T13:52:48Z</time>
      </trkpt>
      <trkpt lat="49.938810" lon="8.058660">
        <time>2010-02-14T13:53:00Z</time>
      </trkpt>
      <trkpt lat="49.938860" lon="8.058530">
        <time>2010-02-14T13:53:08Z</time>
      </trkpt>
      <trkpt lat="49.938960" lon="8.058400">
        <time>2010-02-14T13:53:18Z</time>
      </trkpt>
      <trkpt lat="49.938990" lon="8.058380">
        <time>2010-02-14T13:53:26Z</time>
      </trkpt>
      <trkpt lat="49.939040" lon="8.058320">
        <time>2010-02-14T13:53:28Z</time>
      </trkpt>
      <trkpt lat="49.939060" lon="8.058300">
        <time>2010-02-14T13:53:30Z</time>
      </trkpt>
      <trkpt lat="49.939160" lon="8.058170">
        <time>2010-02-14T13:53:40Z</time>
      </trkpt>
      <trkpt lat="49.939280" lon="8.058040">
        <time>2010-02-14T13:53:54Z</time>
      </trkpt>
      <trkpt lat="49.939370" lon="8.058040">
        <time>2010-02-14T13:54:02Z</time>
      </trkpt>
      <trkpt lat="49.939500" lon="8.058080">
        <time>2010-02-14T13:54:10Z</time>
      </trkpt>
      <trkpt lat="49.939650" lon="8.058170">
        <time>2010-02-14T13:54:20Z</time>
      </trkpt>
      <trkpt lat="49.939820" lon="8.058230">
        <time>2010-02-14T13:54:32Z</time>
      </trkpt>
      <trkpt lat="49.939920" lon="8.058230">
        <time>2010-02-14T13:54:40Z</time>
      </trkpt>
      <trkpt lat="49.940020" lon="8.058190">
        <time>2010-02-14T13:54:50Z</time>
      </trkpt>
      <trkpt lat="49.940090" lon="8.058100">
        <time>2010-02-14T13:54:56Z</time>
      </trkpt>
      <trkpt lat="49.940310" lon="8.057870">
        <time>2010-02-14T13:55:16Z</time>
      </trkpt>
      <trkpt lat="49.940400" lon="8.057820">
        <time>2010-02-14T13:55:22Z</time>
      </trkpt>
      <trkpt lat="49.940470" lon="8.057720">
        <time>2010-02-14T13:55:30Z</time>
      </trkpt>
      <trkpt lat="49.940560" lon="8.057610">
        <time>2010-02-14T13:55:42Z</time>
      </trkpt>
      <trkpt lat="49.940660" lon="8.057480">
        <time>2010-02-14T13:55:52Z</time>
      </trkpt>
      <trkpt lat="49.940800" lon="8.057350">
        <time>2010-02-14T13:56:04Z</time>
      </trkpt>
      <trkpt lat="49.941050" lon="8.057050">
        <time>2010-02-14T13:56:28Z</time>
      </trkpt>
      <trkpt lat="49.941060" lon="8.056920">
        <time>2010-02-14T13:56:34Z</time>
      </trkpt>
      <trkpt lat="49.941100" lon="8.056620">
        <time>2010-02-14T13:56:50Z</time>
      </trkpt>
      <trkpt lat="49.941150" lon="8.056510">
        <time>2010-02-14T13:57:00Z</time>
      </trkpt>
      <trkpt lat="49.941240" lon="8.056320">
        <time>2010-02-14T13:57:12Z</time>
      </trkpt>
      <trkpt lat="49.941340" lon="8.056170">
        <time>2010-02-14T13:57:24Z</time>
      </trkpt>
      <trkpt lat="49.941500" lon="8.055980">
        <time>2010-02-14T13:57:38Z</time>
      </trkpt>
      <trkpt lat="49.941580" lon="8.055830">
        <time>2010-02-14T13:57:48Z</time>
      </trkpt>
      <trkpt lat="49.941750" lon="8.055590">
        <time>2010-02-14T13:58:06Z</time>
      </trkpt>
      <trkpt lat="49.941870" lon="8.055460">
        <time>2010-02-14T13:58:20Z</time>
      </trkpt>
      <trkpt lat="49.941980" lon="8.055310">
        <time>2010-02-14T13:58:30Z</time>
      </trkpt>
      <trkpt lat="49.942180" lon="8.055100">
        <time>2010-02-14T13:58:46Z</time>
      </trkpt>
      <trkpt lat="49.942270" lon="8.055050">
        <time>2010-02-14T13:58:56Z</time>
      </trkpt>
      <trkpt lat="49.942290" lon="8.055030">
        <time>2010-02-14T13:59:04Z</time>
      </trkpt>
      <trkpt lat="49.942380" lon="8.054970">
        <time>2010-02-14T13:59:08Z</time>
      </trkpt>
      <trkpt lat="49.942380" lon="8.054970">
        <time>2010-02-14T13:59:18Z</time>
      </trkpt>
      <trkpt lat="49.942380" lon="8.054970">
        <time>2010-02-14T13:59:22Z</time>
      </trkpt>
      <trkpt lat="49.942530" lon="8.054780">
        <time>2010-02-14T13:59:26Z</time>
      </trkpt>
      <trkpt lat="49.942530" lon="8.054780">
        <time>2010-02-14T13:59:34Z</time>
      </trkpt>
      <trkpt lat="49.942530" lon="8.054780">
        <time>2010-02-14T13:59:38Z</time>
      </trkpt>
      <trkpt lat="49.942780" lon="8.054670">
        <time>2010-02-14T13:59:42Z</time>
      </trkpt>
      <trkpt lat="49.942890" lon="8.054580">
        <time>2010-02-14T13:59:48Z</time>
      </trkpt>
      <trkpt lat="49.942950" lon="8.054520">
        <time>2010-02-14T13:59:54Z</time>
      </trkpt>
      <trkpt lat="49.943030" lon="8.054390">
        <time>2010-02-14T14:00:04Z</time>
      </trkpt>
      <trkpt lat="49.943090" lon="8.054280">
        <time>2010-02-14T14:00:18Z</time>
      </trkpt>
      <trkpt lat="49.943090" lon="8.054280">
        <time>2010-02-14T14:00:22Z</time>
      </trkpt>
      <trkpt lat="49.943200" lon="8.054090">
        <time>2010-02-14T14:00:26Z</time>
      </trkpt>
      <trkpt lat="49.943210" lon="8.054020">
        <time>2010-02-14T14:00:34Z</time>
      </trkpt>
      <trkpt lat="49.943310" lon="8.053870">
        <time>2010-02-14T14:00:38Z</time>
      </trkpt>
      <trkpt lat="49.943390" lon="8.053810">
        <time>2010-02-14T14:00:46Z</time>
      </trkpt>
      <trkpt lat="49.943560" lon="8.053720">
        <time>2010-02-14T14:00:58Z</time>
      </trkpt>
      <trkpt lat="49.943620" lon="8.053700">
        <time>2010-02-14T14:01:06Z</time>
      </trkpt>
      <trkpt lat="49.943620" lon="8.053700">
        <time>2010-02-14T14:01:10Z</time>
      </trkpt>
      <trkpt lat="49.943620" lon="8.053700">
        <time>2010-02-14T14:01:14Z</time>
      </trkpt>
      <trkpt lat="49.943620" lon="8.053700">
        <time>2010-02-14T14:01:18Z</time>
      </trkpt>
      <trkpt lat="49.943800" lon="8.053530">
        <time>2010-02-14T14:01:22Z</time>
      </trkpt>
      <trkpt lat="49.943830" lon="8.053490">
        <time>2010-02-14T14:01:30Z</time>
      </trkpt>
      <trkpt lat="49.943830" lon="8.053490">
        <time>2010-02-14T14:01:34Z</time>
      </trkpt>
      <trkpt lat="49.943930" lon="8.053360">
        <time>2010-02-14T14:01:38Z</time>
      </trkpt>
      <trkpt lat="49.944040" lon="8.053340">
        <time>2010-02-14T14:01:46Z</time>
      </trkpt>
      <trkpt lat="49.944110" lon="8.053400">
        <time>2010-02-14T14:01:50Z</time>
      </trkpt>
      <trkpt lat="49.944110" lon="8.053400">
        <time>2010-02-14T14:01:58Z</time>
      </trkpt>
      <trkpt lat="49.944110" lon="8.053400">
        <time>2010-02-14T14:02:00Z</time>
      </trkpt>
      <trkpt lat="49.944120" lon="8.053420">
        <time>2010-02-14T14:02:02Z</time>
      </trkpt>
      <trkpt lat="49.944230" lon="8.053620">
        <time>2010-02-14T14:02:06Z</time>
      </trkpt>
      <trkpt lat="49.944290" lon="8.053750">
        <time>2010-02-14T14:02:16Z</time>
      </trkpt>
      <trkpt lat="49.944290" lon="8.053750">
        <time>2010-02-14T14:02:18Z</time>
      </trkpt>
      <trkpt lat="49.944290" lon="8.053750">
        <time>2010-02-14T14:02:20Z</time>
      </trkpt>
      <trkpt lat="49.944290" lon="8.053750">
        <time>2010-02-14T14:02:24Z</time>
      </trkpt>
      <trkpt lat="49.944390" lon="8.053810">
        <time>2010-02-14T14:02:28Z</time>
      </trkpt>
      <trkpt lat="49.944550" lon="8.053830">
        <time>2010-02-14T14:02:36Z</time>
      </trkpt>
      <trkpt lat="49.944550" lon="8.053830">
        <time>2010-02-14T14:02:40Z</time>
      </trkpt>
      <trkpt lat="49.944550" lon="8.053830">
        <time>2010-02-14T14:02:44Z</time>
      </trkpt>
      <trkpt lat="49.944700" lon="8.053790">
        <time>2010-02-14T14:02:48Z</time>
      </trkpt>
      <trkpt lat="49.944800" lon="8.053750">
        <time>2010-02-14T14:02:58Z</time>
      </trkpt>
      <trkpt lat="49.944920" lon="8.053700">
        <time>2010-02-14T14:03:02Z</time>
      </trkpt>
      <trkpt lat="49.944920" lon="8.053700">
        <time>2010-02-14T14:03:10Z</time>
      </trkpt>
      <trkpt lat="49.944920" lon="8.053700">
        <time>2010-02-14T14:03:14Z</time>
      </trkpt>
      <trkpt lat="49.944920" lon="8.053700">
        <time>2010-02-14T14:03:30Z</time>
      </trkpt>
      <trkpt lat="49.945180" lon="8.053570">
        <time>2010-02-14T14:03:36Z</time>
      </trkpt>
      <trkpt lat="49.945180" lon="8.053570">
        <time>2010-02-14T14:03:44Z</time>
      </trkpt>
      <trkpt lat="49.945180" lon="8.053570">
        <time>2010-02-14T14:03:48Z</time>
      </trkpt>
      <trkpt lat="49.945180" lon="8.053570">
        <time>2010-02-14T14:03:52Z</time>
      </trkpt>
      <trkpt lat="49.945450" lon="8.053470">
        <time>2010-02-14T14:03:58Z</time>
      </trkpt>
      <trkpt lat="49.945580" lon="8.053380">
        <time>2010-02-14T14:04:06Z</time>
      </trkpt>
      <trkpt lat="49.945580" lon="8.053380">
        <time>2010-02-14T14:04:10Z</time>
      </trkpt>
      <trkpt lat="49.945710" lon="8.053320">
        <time>2010-02-14T14:04:14Z</time>
      </trkpt>
      <trkpt lat="49.945710" lon="8.053320">
        <time>2010-02-14T14:04:22Z</time>
      </trkpt>
      <trkpt lat="49.945710" lon="8.053320">
        <time>2010-02-14T14:04:26Z</time>
      </trkpt>
      <trkpt lat="49.945850" lon="8.053230">
        <time>2010-02-14T14:04:34Z</time>
      </trkpt>
      <trkpt lat="49.945850" lon="8.053230">
        <time>2010-02-14T14:04:38Z</time>
      </trkpt>
      <trkpt lat="49.945960" lon="8.053170">
        <time>2010-02-14T14:04:42Z</time>
      </trkpt>
      <trkpt lat="49.946020" lon="8.053040">
        <time>2010-02-14T14:04:48Z</time>
      </trkpt>
      <trkpt lat="49.946100" lon="8.052950">
        <time>2010-02-14T14:04:56Z</time>
      </trkpt>
      <trkpt lat="49.946100" lon="8.052950">
        <time>2010-02-14T14:05:00Z</time>
      </trkpt>
      <trkpt lat="49.946100" lon="8.052950">
        <time>2010-02-14T14:05:04Z</time>
      </trkpt>
      <trkpt lat="49.946180" lon="8.052840">
        <time>2010-02-14T14:05:08Z</time>
      </trkpt>
      <trkpt lat="49.946180" lon="8.052840">
        <time>2010-02-14T14:05:16Z</time>
      </trkpt>
      <trkpt lat="49.946180" lon="8.052840">
        <time>2010-02-14T14:05:20Z</time>
      </trkpt>
      <trkpt lat="49.946360" lon="8.052760">
        <time>2010-02-14T14:05:24Z</time>
      </trkpt>
      <trkpt lat="49.946360" lon="8.052760">
        <time>2010-02-14T14:05:32Z</time>
      </trkpt>
      <trkpt lat="49.946500" lon="8.052690">
        <time>2010-02-14T14:05:36Z</time>
      </trkpt>
      <trkpt lat="49.946540" lon="8.052670">
        <time>2010-02-14T14:05:44Z</time>
      </trkpt>
      <trkpt lat="49.946630" lon="8.052610">
        <time>2010-02-14T14:05:48Z</time>
      </trkpt>
      <trkpt lat="49.946750" lon="8.052540">
        <time>2010-02-14T14:05:58Z</time>
      </trkpt>
      <trkpt lat="49.946870" lon="8.052480">
        <time>2010-02-14T14:06:02Z</time>
      </trkpt>
      <trkpt lat="49.946940" lon="8.052460">
        <time>2010-02-14T14:06:10Z</time>
      </trkpt>
      <trkpt lat="49.947030" lon="8.052500">
        <time>2010-02-14T14:06:16Z</time>
      </trkpt>
      <trkpt lat="49.947170" lon="8.052480">
        <time>2010-02-14T14:06:24Z</time>
      </trkpt>
      <trkpt lat="49.947240" lon="8.052500">
        <time>2010-02-14T14:06:28Z</time>
      </trkpt>
      <trkpt lat="49.947440" lon="8.052570">
        <time>2010-02-14T14:06:42Z</time>
      </trkpt>
      <trkpt lat="49.947460" lon="8.052590">
        <time>2010-02-14T14:06:50Z</time>
      </trkpt>
      <trkpt lat="49.947460" lon="8.052590">
        <time>2010-02-14T14:06:54Z</time>
      </trkpt>
      <trkpt lat="49.947580" lon="8.052610">
        <time>2010-02-14T14:07:00Z</time>
      </trkpt>
      <trkpt lat="49.947580" lon="8.052610">
        <time>2010-02-14T14:07:08Z</time>
      </trkpt>
      <trkpt lat="49.947650" lon="8.052670">
        <time>2010-02-14T14:07:12Z</time>
      </trkpt>
      <trkpt lat="49.947650" lon="8.052670">
        <time>2010-02-14T14:07:20Z</time>
      </trkpt>
      <trkpt lat="49.947860" lon="8.052740">
        <time>2010-02-14T14:07:24Z</time>
      </trkpt>
      <trkpt lat="49.947880" lon="8.052740">
        <time>2010-02-14T14:07:30Z</time>
      </trkpt>
      <trkpt lat="49.947990" lon="8.052670">
        <time>2010-02-14T14:07:36Z</time>
      </trkpt>
      <trkpt lat="49.948030" lon="8.052650">
        <time>2010-02-14T14:07:42Z</time>
      </trkpt>
      <trkpt lat="49.948080" lon="8.052590">
        <time>2010-02-14T14:07:46Z</time>
      </trkpt>
      <trkpt lat="49.948230" lon="8.052460">
        <time>2010-02-14T14:08:00Z</time>
      </trkpt>
      <trkpt lat="49.948340" lon="8.052310">
        <time>2010-02-14T14:08:12Z</time>
      </trkpt>
      <trkpt lat="49.948370" lon="8.052270">
        <time>2010-02-14T14:08:20Z</time>
      </trkpt>
      <trkpt lat="49.948370" lon="8.052270">
        <time>2010-02-14T14:08:24Z</time>
      </trkpt>
      <trkpt lat="49.948370" lon="8.052270">
        <time>2010-02-14T14:08:28Z</time>
      </trkpt>
      <trkpt lat="49.948370" lon="8.052270">
        <time>2010-02-14T14:08:36Z</time>
      </trkpt>
      <trkpt lat="49.948610" lon="8.052010">
        <time>2010-02-14T14:08:42Z</time>
      </trkpt>
      <trkpt lat="49.948610" lon="8.052010">
        <time>2010-02-14T14:08:52Z</time>
      </trkpt>
      <trkpt lat="49.948740" lon="8.051900">
        <time>2010-02-14T14:08:56Z</time>
      </trkpt>
      <trkpt lat="49.948830" lon="8.051860">
        <time>2010-02-14T14:09:04Z</time>
      </trkpt>
      <trkpt lat="49.948830" lon="8.051860">
        <time>2010-02-14T14:09:08Z</time>
      </trkpt>
      <trkpt lat="49.948830" lon="8.051860">
        <time>2010-02-14T14:09:12Z</time>
      </trkpt>
      <trkpt lat="49.948980" lon="8.051750">
        <time>2010-02-14T14:09:16Z</time>
      </trkpt>
      <trkpt lat="49.949110" lon="8.051640">
        <time>2010-02-14T14:09:28Z</time>
      </trkpt>
      <trkpt lat="49.949160" lon="8.051580">
        <time>2010-02-14T14:09:30Z</time>
      </trkpt>
      <trkpt lat="49.949240" lon="8.051540">
        <time>2010-02-14T14:09:36Z</time>
      </trkpt>
      <trkpt lat="49.949310" lon="8.051450">
        <time>2010-02-14T14:09:44Z</time>
      </trkpt>
      <trkpt lat="49.949410" lon="8.051260">
        <time>2010-02-14T14:09:58Z</time>
      </trkpt>
      <trkpt lat="49.949460" lon="8.051040">
        <time>2010-02-14T14:10:10Z</time>
      </trkpt>
      <trkpt lat="49.949530" lon="8.050810">
        <time>2010-02-14T14:10:26Z</time>
      </trkpt>
      <trkpt lat="49.949550" lon="8.050660">
        <time>2010-02-14T14:10:30Z</time>
      </trkpt>
      <trkpt lat="49.949600" lon="8.050460">
        <time>2010-02-14T14:10:40Z</time>
      </trkpt>
      <trkpt lat="49.949600" lon="8.050460">
        <time>2010-02-14T14:10:44Z</time>
      </trkpt>
      <trkpt lat="49.949660" lon="8.050360">
        <time>2010-02-14T14:10:48Z</time>
      </trkpt>
      <trkpt lat="49.949690" lon="8.050290">
        <time>2010-02-14T14:10:58Z</time>
      </trkpt>
      <trkpt lat="49.949780" lon="8.050160">
        <time>2010-02-14T14:11:02Z</time>
      </trkpt>
      <trkpt lat="49.949830" lon="8.050080">
        <time>2010-02-14T14:11:10Z</time>
      </trkpt>
      <trkpt lat="49.949980" lon="8.049910">
        <time>2010-02-14T14:11:28Z</time>
      </trkpt>
      <trkpt lat="49.950170" lon="8.049600">
        <time>2010-02-14T14:11:52Z</time>
      </trkpt>
      <trkpt lat="49.950280" lon="8.049370">
        <time>2010-02-14T14:12:06Z</time>
      </trkpt>
      <trkpt lat="49.950390" lon="8.049130">
        <time>2010-02-14T14:12:22Z</time>
      </trkpt>
      <trkpt lat="49.950440" lon="8.049090">
        <time>2010-02-14T14:12:28Z</time>
      </trkpt>
      <trkpt lat="49.950520" lon="8.048960">
        <time>2010-02-14T14:12:38Z</time>
      </trkpt>
      <trkpt lat="49.950640" lon="8.048640">
        <time>2010-02-14T14:13:00Z</time>
      </trkpt>
      <trkpt lat="49.950710" lon="8.048360">
        <time>2010-02-14T14:13:18Z</time>
      </trkpt>
      <trkpt lat="49.950760" lon="8.048150">
        <time>2010-02-14T14:13:28Z</time>
      </trkpt>
      <trkpt lat="49.950850" lon="8.047910">
        <time>2010-02-14T14:13:42Z</time>
      </trkpt>
      <trkpt lat="49.950950" lon="8.047690">
        <time>2010-02-14T14:13:58Z</time>
      </trkpt>
      <trkpt lat="49.950970" lon="8.047500">
        <time>2010-02-14T14:14:08Z</time>
      </trkpt>
      <trkpt lat="49.951010" lon="8.047440">
        <time>2010-02-14T14:14:14Z</time>
      </trkpt>
      <trkpt lat="49.951100" lon="8.047220">
        <time>2010-02-14T14:14:28Z</time>
      </trkpt>
      <trkpt lat="49.951180" lon="8.047140">
        <time>2010-02-14T14:14:36Z</time>
      </trkpt>
      <trkpt lat="49.951290" lon="8.047090">
        <time>2010-02-14T14:14:46Z</time>
      </trkpt>
      <trkpt lat="49.951400" lon="8.047070">
        <time>2010-02-14T14:15:00Z</time>
      </trkpt>
      <trkpt lat="49.951450" lon="8.047070">
        <time>2010-02-14T14:15:04Z</time>
      </trkpt>
      <trkpt lat="49.951560" lon="8.047050">
        <time>2010-02-14T14:15:16Z</time>
      </trkpt>
      <trkpt lat="49.951730" lon="8.047070">
        <time>2010-02-14T14:15:34Z</time>
      </trkpt>
      <trkpt lat="49.951880" lon="8.047090">
        <time>2010-02-14T14:15:46Z</time>
      </trkpt>
      <trkpt lat="49.951910" lon="8.047120">
        <time>2010-02-14T14:15:54Z</time>
      </trkpt>
      <trkpt lat="49.951990" lon="8.047120">
        <time>2010-02-14T14:15:58Z</time>
      </trkpt>
      <trkpt lat="49.952050" lon="8.047120">
        <time>2010-02-14T14:16:06Z</time>
      </trkpt>
      <trkpt lat="49.952100" lon="8.047140">
        <time>2010-02-14T14:16:10Z</time>
      </trkpt>
      <trkpt lat="49.952190" lon="8.047140">
        <time>2010-02-14T14:16:16Z</time>
      </trkpt>
      <trkpt lat="49.952370" lon="8.047090">
        <time>2010-02-14T14:16:30Z</time>
      </trkpt>
      <trkpt lat="49.952550" lon="8.047050">
        <time>2010-02-14T14:16:46Z</time>
      </trkpt>
      <trkpt lat="49.952640" lon="8.046990">
        <time>2010-02-14T14:16:54Z</time>
      </trkpt>
      <trkpt lat="49.952780" lon="8.046840">
        <time>2010-02-14T14:17:08Z</time>
      </trkpt>
      <trkpt lat="49.952940" lon="8.046660">
        <time>2010-02-14T14:17:26Z</time>
      </trkpt>
      <trkpt lat="49.953310" lon="8.046210">
        <time>2010-02-14T14:18:12Z</time>
      </trkpt>
      <trkpt lat="49.953420" lon="8.046020">
        <time>2010-02-14T14:18:26Z</time>
      </trkpt>
      <trkpt lat="49.953490" lon="8.045830">
        <time>2010-02-14T14:18:36Z</time>
      </trkpt>
      <trkpt lat="49.953570" lon="8.045700">
        <time>2010-02-14T14:18:46Z</time>
      </trkpt>
      <trkpt lat="49.953610" lon="8.045660">
        <time>2010-02-14T14:18:48Z</time>
      </trkpt>
      <trkpt lat="49.953680" lon="8.045530">
        <time>2010-02-14T14:18:58Z</time>
      </trkpt>
      <trkpt lat="49.953710" lon="8.045360">
        <time>2010-02-14T14:19:08Z</time>
      </trkpt>
      <trkpt lat="49.953700" lon="8.045270">
        <time>2010-02-14T14:19:18Z</time>
      </trkpt>
      <trkpt lat="49.953670" lon="8.045290">
        <time>2010-02-14T14:19:22Z</time>
      </trkpt>
      <trkpt lat="49.953570" lon="8.045310">
        <time>2010-02-14T14:19:30Z</time>
      </trkpt>
      <trkpt lat="49.953430" lon="8.045310">
        <time>2010-02-14T14:19:44Z</time>
      </trkpt>
      <trkpt lat="49.953260" lon="8.045270">
        <time>2010-02-14T14:20:00Z</time>
      </trkpt>
      <trkpt lat="49.953140" lon="8.045210">
        <time>2010-02-14T14:20:10Z</time>
      </trkpt>
      <trkpt lat="49.953020" lon="8.045120">
        <time>2010-02-14T14:20:24Z</time>
      </trkpt>
      <trkpt lat="49.952920" lon="8.045100">
        <time>2010-02-14T14:20:34Z</time>
      </trkpt>
      <trkpt lat="49.952820" lon="8.045030">
        <time>2010-02-14T14:20:46Z</time>
      </trkpt>
      <trkpt lat="49.952680" lon="8.044950">
        <time>2010-02-14T14:21:00Z</time>
      </trkpt>
      <trkpt lat="49.952520" lon="8.044880">
        <time>2010-02-14T14:21:12Z</time>
      </trkpt>
      <trkpt lat="49.952250" lon="8.044730">
        <time>2010-02-14T14:21:34Z</time>
      </trkpt>
      <trkpt lat="49.952140" lon="8.044630">
        <time>2010-02-14T14:21:46Z</time>
      </trkpt>
      <trkpt lat="49.952040" lon="8.044610">
        <time>2010-02-14T14:21:56Z</time>
      </trkpt>
      <trkpt lat="49.951900" lon="8.044540">
        <time>2010-02-14T14:22:10Z</time>
      </trkpt>
      <trkpt lat="49.951850" lon="8.044480">
        <time>2010-02-14T14:22:16Z</time>
      </trkpt>
      <trkpt lat="49.951700" lon="8.044350">
        <time>2010-02-14T14:22:28Z</time>
      </trkpt>
      <trkpt lat="49.951510" lon="8.044220">
        <time>2010-02-14T14:22:44Z</time>
      </trkpt>
      <trkpt lat="49.951350" lon="8.044130">
        <time>2010-02-14T14:23:00Z</time>
      </trkpt>
      <trkpt lat="49.951190" lon="8.044070">
        <time>2010-02-14T14:23:12Z</time>
      </trkpt>
      <trkpt lat="49.951100" lon="8.044070">
        <time>2010-02-14T14:23:18Z</time>
      </trkpt>
      <trkpt lat="49.950990" lon="8.044030">
        <time>2010-02-14T14:23:26Z</time>
      </trkpt>
      <trkpt lat="49.950950" lon="8.043960">
        <time>2010-02-14T14:23:32Z</time>
      </trkpt>
      <trkpt lat="49.950870" lon="8.043920">
        <time>2010-02-14T14:23:40Z</time>
      </trkpt>
      <trkpt lat="49.950770" lon="8.043900">
        <time>2010-02-14T14:23:48Z</time>
      </trkpt>
      <trkpt lat="49.950640" lon="8.043830">
        <time>2010-02-14T14:23:58Z</time>
      </trkpt>
      <trkpt lat="49.950510" lon="8.043730">
        <time>2010-02-14T14:24:10Z</time>
      </trkpt>
      <trkpt lat="49.950280" lon="8.043600">
        <time>2010-02-14T14:24:28Z</time>
      </trkpt>
      <trkpt lat="49.950110" lon="8.043490">
        <time>2010-02-14T14:24:44Z</time>
      </trkpt>
      <trkpt lat="49.949660" lon="8.043170">
        <time>2010-02-14T14:25:28Z</time>
      </trkpt>
      <trkpt lat="49.949630" lon="8.043040">
        <time>2010-02-14T14:25:36Z</time>
      </trkpt>
      <trkpt lat="49.949650" lon="8.042820">
        <time>2010-02-14T14:25:48Z</time>
      </trkpt>
      <trkpt lat="49.949650" lon="8.042800">
        <time>2010-02-14T14:25:52Z</time>
      </trkpt>
      <trkpt lat="49.949690" lon="8.042740">
        <time>2010-02-14T14:25:56Z</time>
      </trkpt>
      <trkpt lat="49.949730" lon="8.042630">
        <time>2010-02-14T14:26:02Z</time>
      </trkpt>
      <trkpt lat="49.949780" lon="8.042570">
        <time>2010-02-14T14:26:10Z</time>
      </trkpt>
      <trkpt lat="49.949780" lon="8.042570">
        <time>2010-02-14T14:26:14Z</time>
      </trkpt>
      <trkpt lat="49.949850" lon="8.042440">
        <time>2010-02-14T14:26:18Z</time>
      </trkpt>
      <trkpt lat="49.949950" lon="8.042200">
        <time>2010-02-14T14:26:34Z</time>
      </trkpt>
      <trkpt lat="49.950130" lon="8.041860">
        <time>2010-02-14T14:26:58Z</time>
      </trkpt>
      <trkpt lat="49.950660" lon="8.040960">
        <time>2010-02-14T14:28:02Z</time>
      </trkpt>
      <trkpt lat="49.951060" lon="8.040330">
        <time>2010-02-14T14:28:50Z</time>
      </trkpt>
      <trkpt lat="49.951140" lon="8.040140">
        <time>2010-02-14T14:29:02Z</time>
      </trkpt>
      <trkpt lat="49.951410" lon="8.039560">
        <time>2010-02-14T14:29:40Z</time>
      </trkpt>
      <trkpt lat="49.951470" lon="8.039260">
        <time>2010-02-14T14:29:58Z</time>
      </trkpt>
      <trkpt lat="49.951420" lon="8.039180">
        <time>2010-02-14T14:30:06Z</time>
      </trkpt>
      <trkpt lat="49.951310" lon="8.039030">
        <time>2010-02-14T14:30:18Z</time>
      </trkpt>
      <trkpt lat="49.951220" lon="8.038960">
        <time>2010-02-14T14:30:26Z</time>
      </trkpt>
      <trkpt lat="49.950970" lon="8.038730">
        <time>2010-02-14T14:30:50Z</time>
      </trkpt>
      <trkpt lat="49.950620" lon="8.038360">
        <time>2010-02-14T14:31:26Z</time>
      </trkpt>
      <trkpt lat="49.950440" lon="8.038210">
        <time>2010-02-14T14:31:46Z</time>
      </trkpt>
      <trkpt lat="49.950330" lon="8.038190">
        <time>2010-02-14T14:31:54Z</time>
      </trkpt>
      <trkpt lat="49.950170" lon="8.038120">
        <time>2010-02-14T14:32:04Z</time>
      </trkpt>
      <trkpt lat="49.950110" lon="8.038040">
        <time>2010-02-14T14:32:12Z</time>
      </trkpt>
      <trkpt lat="49.950130" lon="8.037930">
        <time>2010-02-14T14:32:20Z</time>
      </trkpt>
      <trkpt lat="49.950190" lon="8.037820">
        <time>2010-02-14T14:32:28Z</time>
      </trkpt>
      <trkpt lat="49.950270" lon="8.037670">
        <time>2010-02-14T14:32:42Z</time>
      </trkpt>
      <trkpt lat="49.950270" lon="8.037670">
        <time>2010-02-14T14:32:46Z</time>
      </trkpt>
      <trkpt lat="49.950370" lon="8.037590">
        <time>2010-02-14T14:32:50Z</time>
      </trkpt>
      <trkpt lat="49.950400" lon="8.037570">
        <time>2010-02-14T14:32:58Z</time>
      </trkpt>
      <trkpt lat="49.950400" lon="8.037570">
        <time>2010-02-14T14:33:02Z</time>
      </trkpt>
      <trkpt lat="49.950490" lon="8.037480">
        <time>2010-02-14T14:33:06Z</time>
      </trkpt>
      <trkpt lat="49.950530" lon="8.037480">
        <time>2010-02-14T14:33:14Z</time>
      </trkpt>
      <trkpt lat="49.950570" lon="8.037480">
        <time>2010-02-14T14:33:20Z</time>
      </trkpt>
      <trkpt lat="49.950640" lon="8.037420">
        <time>2010-02-14T14:33:30Z</time>
      </trkpt>
      <trkpt lat="49.950720" lon="8.037400">
        <time>2010-02-14T14:33:36Z</time>
      </trkpt>
      <trkpt lat="49.950810" lon="8.037330">
        <time>2010-02-14T14:33:44Z</time>
      </trkpt>
      <trkpt lat="49.951110" lon="8.037050">
        <time>2010-02-14T14:34:14Z</time>
      </trkpt>
      <trkpt lat="49.951230" lon="8.036880">
        <time>2010-02-14T14:34:28Z</time>
      </trkpt>
      <trkpt lat="49.951290" lon="8.036860">
        <time>2010-02-14T14:34:32Z</time>
      </trkpt>
      <trkpt lat="49.951410" lon="8.036820">
        <time>2010-02-14T14:34:44Z</time>
      </trkpt>
      <trkpt lat="49.951410" lon="8.036820">
        <time>2010-02-14T14:34:48Z</time>
      </trkpt>
      <trkpt lat="49.951410" lon="8.036820">
        <time>2010-02-14T14:34:52Z</time>
      </trkpt>
      <trkpt lat="49.951500" lon="8.036730">
        <time>2010-02-14T14:34:56Z</time>
      </trkpt>
      <trkpt lat="49.951660" lon="8.036600">
        <time>2010-02-14T14:35:12Z</time>
      </trkpt>
      <trkpt lat="49.951660" lon="8.036600">
        <time>2010-02-14T14:35:16Z</time>
      </trkpt>
      <trkpt lat="49.951660" lon="8.036600">
        <time>2010-02-14T14:35:20Z</time>
      </trkpt>
      <trkpt lat="49.951810" lon="8.036520">
        <time>2010-02-14T14:35:24Z</time>
      </trkpt>
      <trkpt lat="49.951810" lon="8.036520">
        <time>2010-02-14T14:35:32Z</time>
      </trkpt>
      <trkpt lat="49.951920" lon="8.036470">
        <time>2010-02-14T14:35:36Z</time>
      </trkpt>
      <trkpt lat="49.951920" lon="8.036470">
        <time>2010-02-14T14:35:44Z</time>
      </trkpt>
      <trkpt lat="49.952050" lon="8.036370">
        <time>2010-02-14T14:35:48Z</time>
      </trkpt>
      <trkpt lat="49.952150" lon="8.036320">
        <time>2010-02-14T14:35:56Z</time>
      </trkpt>
      <trkpt lat="49.952280" lon="8.036220">
        <time>2010-02-14T14:36:06Z</time>
      </trkpt>
      <trkpt lat="49.952480" lon="8.036000">
        <time>2010-02-14T14:36:22Z</time>
      </trkpt>
      <trkpt lat="49.952640" lon="8.035870">
        <time>2010-02-14T14:36:36Z</time>
      </trkpt>
      <trkpt lat="49.952810" lon="8.035720">
        <time>2010-02-14T14:36:54Z</time>
      </trkpt>
      <trkpt lat="49.952890" lon="8.035700">
        <time>2010-02-14T14:37:00Z</time>
      </trkpt>
      <trkpt lat="49.952940" lon="8.035640">
        <time>2010-02-14T14:37:06Z</time>
      </trkpt>
      <trkpt lat="49.953030" lon="8.035460">
        <time>2010-02-14T14:37:14Z</time>
      </trkpt>
      <trkpt lat="49.953180" lon="8.035160">
        <time>2010-02-14T14:37:30Z</time>
      </trkpt>
      <trkpt lat="49.953280" lon="8.035030">
        <time>2010-02-14T14:37:42Z</time>
      </trkpt>
      <trkpt lat="49.953560" lon="8.034760">
        <time>2010-02-14T14:38:10Z</time>
      </trkpt>
      <trkpt lat="49.953680" lon="8.034650">
        <time>2010-02-14T14:38:24Z</time>
      </trkpt>
      <trkpt lat="49.953800" lon="8.034610">
        <time>2010-02-14T14:38:36Z</time>
      </trkpt>
      <trkpt lat="49.953840" lon="8.034560">
        <time>2010-02-14T14:38:46Z</time>
      </trkpt>
      <trkpt lat="49.953840" lon="8.034560">
        <time>2010-02-14T14:38:50Z</time>
      </trkpt>
      <trkpt lat="49.953840" lon="8.034560">
        <time>2010-02-14T14:38:54Z</time>
      </trkpt>
      <trkpt lat="49.954010" lon="8.034430">
        <time>2010-02-14T14:38:58Z</time>
      </trkpt>
      <trkpt lat="49.954010" lon="8.034430">
        <time>2010-02-14T14:39:06Z</time>
      </trkpt>
      <trkpt lat="49.954170" lon="8.034260">
        <time>2010-02-14T14:39:10Z</time>
      </trkpt>
      <trkpt lat="49.954290" lon="8.034200">
        <time>2010-02-14T14:39:18Z</time>
      </trkpt>
      <trkpt lat="49.954370" lon="8.034110">
        <time>2010-02-14T14:39:24Z</time>
      </trkpt>
      <trkpt lat="49.954490" lon="8.034030">
        <time>2010-02-14T14:39:32Z</time>
      </trkpt>
      <trkpt lat="49.954600" lon="8.033980">
        <time>2010-02-14T14:39:42Z</time>
      </trkpt>
      <trkpt lat="49.954750" lon="8.033960">
        <time>2010-02-14T14:39:56Z</time>
      </trkpt>
      <trkpt lat="49.954840" lon="8.033980">
        <time>2010-02-14T14:40:02Z</time>
      </trkpt>
      <trkpt lat="49.954960" lon="8.033980">
        <time>2010-02-14T14:40:12Z</time>
      </trkpt>
      <trkpt lat="49.955040" lon="8.033940">
        <time>2010-02-14T14:40:20Z</time>
      </trkpt>
      <trkpt lat="49.955120" lon="8.033940">
        <time>2010-02-14T14:40:26Z</time>
      </trkpt>
      <trkpt lat="49.955200" lon="8.033900">
        <time>2010-02-14T14:40:32Z</time>
      </trkpt>
      <trkpt lat="49.955250" lon="8.033880">
        <time>2010-02-14T14:40:40Z</time>
      </trkpt>
      <trkpt lat="49.955310" lon="8.033880">
        <time>2010-02-14T14:40:42Z</time>
      </trkpt>
      <trkpt lat="49.955350" lon="8.033850">
        <time>2010-02-14T14:40:46Z</time>
      </trkpt>
      <trkpt lat="49.955500" lon="8.033790">
        <time>2010-02-14T14:40:58Z</time>
      </trkpt>
      <trkpt lat="49.955730" lon="8.033750">
        <time>2010-02-14T14:41:16Z</time>
      </trkpt>
      <trkpt lat="49.955870" lon="8.033680">
        <time>2010-02-14T14:41:28Z</time>
      </trkpt>
      <trkpt lat="49.956120" lon="8.033600">
        <time>2010-02-14T14:41:52Z</time>
      </trkpt>
      <trkpt lat="49.956180" lon="8.033550">
        <time>2010-02-14T14:41:56Z</time>
      </trkpt>
      <trkpt lat="49.956340" lon="8.033490">
        <time>2010-02-14T14:42:08Z</time>
      </trkpt>
      <trkpt lat="49.956580" lon="8.033380">
        <time>2010-02-14T14:42:28Z</time>
      </trkpt>
      <trkpt lat="49.956860" lon="8.033300">
        <time>2010-02-14T14:42:52Z</time>
      </trkpt>
      <trkpt lat="49.957070" lon="8.033250">
        <time>2010-02-14T14:43:06Z</time>
      </trkpt>
      <trkpt lat="49.957070" lon="8.033250">
        <time>2010-02-14T14:43:10Z</time>
      </trkpt>
      <trkpt lat="49.957200" lon="8.033210">
        <time>2010-02-14T14:43:14Z</time>
      </trkpt>
      <trkpt lat="49.957460" lon="8.033130">
        <time>2010-02-14T14:43:32Z</time>
      </trkpt>
      <trkpt lat="49.957550" lon="8.033130">
        <time>2010-02-14T14:43:40Z</time>
      </trkpt>
      <trkpt lat="49.957610" lon="8.033210">
        <time>2010-02-14T14:43:46Z</time>
      </trkpt>
      <trkpt lat="49.957690" lon="8.033450">
        <time>2010-02-14T14:43:58Z</time>
      </trkpt>
      <trkpt lat="49.957750" lon="8.033550">
        <time>2010-02-14T14:44:08Z</time>
      </trkpt>
      <trkpt lat="49.957760" lon="8.033660">
        <time>2010-02-14T14:44:12Z</time>
      </trkpt>
      <trkpt lat="49.957820" lon="8.033920">
        <time>2010-02-14T14:44:26Z</time>
      </trkpt>
      <trkpt lat="49.957930" lon="8.034540">
        <time>2010-02-14T14:44:56Z</time>
      </trkpt>
      <trkpt lat="49.957980" lon="8.035100">
        <time>2010-02-14T14:45:26Z</time>
      </trkpt>
      <trkpt lat="49.957930" lon="8.035120">
        <time>2010-02-14T14:45:32Z</time>
      </trkpt>
      <trkpt lat="49.957880" lon="8.035080">
        <time>2010-02-14T14:45:38Z</time>
      </trkpt>
      <trkpt lat="49.957780" lon="8.035030">
        <time>2010-02-14T14:45:52Z</time>
      </trkpt>
      <trkpt lat="49.957780" lon="8.035030">
        <time>2010-02-14T14:45:56Z</time>
      </trkpt>
      <trkpt lat="49.957780" lon="8.035030">
        <time>2010-02-14T14:46:00Z</time>
      </trkpt>
      <trkpt lat="49.957780" lon="8.035030">
        <time>2010-02-14T14:46:51Z</time>
      </trkpt>
    </trkseg>
  </trk>
</gpx>
